<?xml version="1.0" encoding="UTF-8" standalone="no" ?>
<gpx xmlns="http://www.topografix.com/GPX/1/1" xmlns:xsi="http://www.w3.org/2001/XMLSchema-instance" xsi:schemaLocation="http://www.topografix.com/GPX/1/1 http://www.topografix.com/GPX/1/1/gpx.xsd" version="1.1" creator="VisuGPX - https://www.visugpx.com">
  <metadata>
    <name>RANDO FEURS 18KM</name>
    <desc><![CDATA[RANDO EN BOUCLE DEPART GARE DE FEURS .SALVIZINET .SALT EN DONZY 18 KM]]></desc>
  </metadata>
  <trk>
    <name><![CDATA[FEUREPT-16 14:53:37]]></name>
    <trkseg>
      <trkpt lat="45.74419" lon="4.23016">
        <ele>364.48</ele>
        <time>2016-09-05T07:58:03Z</time>
      </trkpt>
      <trkpt lat="45.74411" lon="4.23017">
        <ele>358.23</ele>
        <time>2016-09-05T07:58:30Z</time>
      </trkpt>
      <trkpt lat="45.74414" lon="4.23017">
        <ele>361.11</ele>
        <time>2016-09-05T07:58:58Z</time>
      </trkpt>
      <trkpt lat="45.74413" lon="4.23022">
        <ele>360.15</ele>
        <time>2016-09-05T07:59:19Z</time>
      </trkpt>
      <trkpt lat="45.7441" lon="4.23026">
        <ele>360.15</ele>
        <time>2016-09-05T07:59:43Z</time>
      </trkpt>
      <trkpt lat="45.74412" lon="4.23021">
        <ele>358.71</ele>
        <time>2016-09-05T08:00:09Z</time>
      </trkpt>
      <trkpt lat="45.7441" lon="4.23021">
        <ele>356.79</ele>
        <time>2016-09-05T08:00:32Z</time>
      </trkpt>
      <trkpt lat="45.74415" lon="4.23023">
        <ele>362.55</ele>
        <time>2016-09-05T08:00:46Z</time>
      </trkpt>
      <trkpt lat="45.74416" lon="4.23034">
        <ele>371.69</ele>
        <time>2016-09-05T08:00:55Z</time>
      </trkpt>
      <trkpt lat="45.74419" lon="4.23037">
        <ele>375.53</ele>
        <time>2016-09-05T08:00:58Z</time>
      </trkpt>
      <trkpt lat="45.74423" lon="4.23042">
        <ele>380.82</ele>
        <time>2016-09-05T08:01:02Z</time>
      </trkpt>
      <trkpt lat="45.7443" lon="4.2306">
        <ele>386.59</ele>
        <time>2016-09-05T08:01:16Z</time>
      </trkpt>
      <trkpt lat="45.74435" lon="4.23083">
        <ele>388.51</ele>
        <time>2016-09-05T08:01:31Z</time>
      </trkpt>
      <trkpt lat="45.74448" lon="4.23097">
        <ele>393.32</ele>
        <time>2016-09-05T08:01:46Z</time>
      </trkpt>
      <trkpt lat="45.74454" lon="4.23107">
        <ele>395.72</ele>
        <time>2016-09-05T08:01:56Z</time>
      </trkpt>
      <trkpt lat="45.74467" lon="4.23139">
        <ele>395.24</ele>
        <time>2016-09-05T08:02:15Z</time>
      </trkpt>
      <trkpt lat="45.74476" lon="4.23171">
        <ele>394.28</ele>
        <time>2016-09-05T08:02:36Z</time>
      </trkpt>
      <trkpt lat="45.74486" lon="4.23195">
        <ele>393.32</ele>
        <time>2016-09-05T08:02:52Z</time>
      </trkpt>
      <trkpt lat="45.74489" lon="4.23217">
        <ele>388.99</ele>
        <time>2016-09-05T08:03:05Z</time>
      </trkpt>
      <trkpt lat="45.74494" lon="4.23244">
        <ele>384.66</ele>
        <time>2016-09-05T08:03:22Z</time>
      </trkpt>
      <trkpt lat="45.74501" lon="4.23269">
        <ele>382.26</ele>
        <time>2016-09-05T08:03:40Z</time>
      </trkpt>
      <trkpt lat="45.74508" lon="4.23277">
        <ele>381.78</ele>
        <time>2016-09-05T08:03:49Z</time>
      </trkpt>
      <trkpt lat="45.74528" lon="4.23294">
        <ele>379.38</ele>
        <time>2016-09-05T08:04:06Z</time>
      </trkpt>
      <trkpt lat="45.74546" lon="4.23307">
        <ele>378.9</ele>
        <time>2016-09-05T08:04:22Z</time>
      </trkpt>
      <trkpt lat="45.74561" lon="4.23323">
        <ele>374.09</ele>
        <time>2016-09-05T08:04:38Z</time>
      </trkpt>
      <trkpt lat="45.74576" lon="4.23343">
        <ele>372.65</ele>
        <time>2016-09-05T08:04:54Z</time>
      </trkpt>
      <trkpt lat="45.74581" lon="4.23349">
        <ele>373.13</ele>
        <time>2016-09-05T08:04:59Z</time>
      </trkpt>
      <trkpt lat="45.74587" lon="4.23354">
        <ele>373.61</ele>
        <time>2016-09-05T08:05:03Z</time>
      </trkpt>
      <trkpt lat="45.7461" lon="4.2337">
        <ele>372.65</ele>
        <time>2016-09-05T08:05:21Z</time>
      </trkpt>
      <trkpt lat="45.74625" lon="4.23381">
        <ele>377.45</ele>
        <time>2016-09-05T08:05:35Z</time>
      </trkpt>
      <trkpt lat="45.74645" lon="4.23393">
        <ele>379.38</ele>
        <time>2016-09-05T08:05:53Z</time>
      </trkpt>
      <trkpt lat="45.74661" lon="4.23405">
        <ele>380.82</ele>
        <time>2016-09-05T08:06:07Z</time>
      </trkpt>
      <trkpt lat="45.74678" lon="4.23419">
        <ele>376.97</ele>
        <time>2016-09-05T08:06:20Z</time>
      </trkpt>
      <trkpt lat="45.74687" lon="4.23426">
        <ele>376.49</ele>
        <time>2016-09-05T08:06:28Z</time>
      </trkpt>
      <trkpt lat="45.74697" lon="4.23434">
        <ele>379.86</ele>
        <time>2016-09-05T08:06:37Z</time>
      </trkpt>
      <trkpt lat="45.74703" lon="4.23439">
        <ele>383.7</ele>
        <time>2016-09-05T08:06:44Z</time>
      </trkpt>
      <trkpt lat="45.74709" lon="4.23441">
        <ele>388.51</ele>
        <time>2016-09-05T08:06:49Z</time>
      </trkpt>
      <trkpt lat="45.74727" lon="4.2345">
        <ele>386.11</ele>
        <time>2016-09-05T08:07:04Z</time>
      </trkpt>
      <trkpt lat="45.74731" lon="4.23463">
        <ele>388.51</ele>
        <time>2016-09-05T08:07:14Z</time>
      </trkpt>
      <trkpt lat="45.74732" lon="4.23484">
        <ele>395.24</ele>
        <time>2016-09-05T08:07:30Z</time>
      </trkpt>
      <trkpt lat="45.74732" lon="4.23506">
        <ele>395.72</ele>
        <time>2016-09-05T08:07:45Z</time>
      </trkpt>
      <trkpt lat="45.74735" lon="4.23533">
        <ele>394.28</ele>
        <time>2016-09-05T08:08:00Z</time>
      </trkpt>
      <trkpt lat="45.74735" lon="4.23555">
        <ele>393.32</ele>
        <time>2016-09-05T08:08:17Z</time>
      </trkpt>
      <trkpt lat="45.74734" lon="4.23568">
        <ele>393.32</ele>
        <time>2016-09-05T08:08:31Z</time>
      </trkpt>
      <trkpt lat="45.74733" lon="4.23572">
        <ele>393.32</ele>
        <time>2016-09-05T08:08:35Z</time>
      </trkpt>
      <trkpt lat="45.74733" lon="4.23611">
        <ele>389.47</ele>
        <time>2016-09-05T08:08:57Z</time>
      </trkpt>
      <trkpt lat="45.74736" lon="4.23631">
        <ele>384.66</ele>
        <time>2016-09-05T08:09:12Z</time>
      </trkpt>
      <trkpt lat="45.74736" lon="4.23635">
        <ele>384.18</ele>
        <time>2016-09-05T08:09:15Z</time>
      </trkpt>
      <trkpt lat="45.74736" lon="4.23659">
        <ele>380.34</ele>
        <time>2016-09-05T08:09:31Z</time>
      </trkpt>
      <trkpt lat="45.74734" lon="4.23675">
        <ele>378.42</ele>
        <time>2016-09-05T08:09:40Z</time>
      </trkpt>
      <trkpt lat="45.74727" lon="4.23699">
        <ele>378.9</ele>
        <time>2016-09-05T08:09:55Z</time>
      </trkpt>
      <trkpt lat="45.74731" lon="4.23716">
        <ele>380.82</ele>
        <time>2016-09-05T08:10:15Z</time>
      </trkpt>
      <trkpt lat="45.74734" lon="4.23744">
        <ele>382.26</ele>
        <time>2016-09-05T08:10:32Z</time>
      </trkpt>
      <trkpt lat="45.74743" lon="4.23773">
        <ele>381.3</ele>
        <time>2016-09-05T08:10:49Z</time>
      </trkpt>
      <trkpt lat="45.74753" lon="4.23814">
        <ele>370.73</ele>
        <time>2016-09-05T08:11:09Z</time>
      </trkpt>
      <trkpt lat="45.7476" lon="4.23845">
        <ele>365.44</ele>
        <time>2016-09-05T08:11:29Z</time>
      </trkpt>
      <trkpt lat="45.7476" lon="4.23846">
        <ele>365.92</ele>
        <time>2016-09-05T08:11:30Z</time>
      </trkpt>
      <trkpt lat="45.74764" lon="4.23864">
        <ele>364.48</ele>
        <time>2016-09-05T08:11:39Z</time>
      </trkpt>
      <trkpt lat="45.74773" lon="4.23875">
        <ele>358.71</ele>
        <time>2016-09-05T08:11:48Z</time>
      </trkpt>
      <trkpt lat="45.74782" lon="4.23885">
        <ele>348.13</ele>
        <time>2016-09-05T08:12:00Z</time>
      </trkpt>
      <trkpt lat="45.74784" lon="4.23887">
        <ele>346.69</ele>
        <time>2016-09-05T08:12:03Z</time>
      </trkpt>
      <trkpt lat="45.74804" lon="4.23899">
        <ele>345.25</ele>
        <time>2016-09-05T08:12:21Z</time>
      </trkpt>
      <trkpt lat="45.74821" lon="4.23911">
        <ele>343.33</ele>
        <time>2016-09-05T08:12:36Z</time>
      </trkpt>
      <trkpt lat="45.74844" lon="4.23922">
        <ele>340.92</ele>
        <time>2016-09-05T08:12:54Z</time>
      </trkpt>
      <trkpt lat="45.74864" lon="4.23933">
        <ele>339</ele>
        <time>2016-09-05T08:13:10Z</time>
      </trkpt>
      <trkpt lat="45.74884" lon="4.23941">
        <ele>339</ele>
        <time>2016-09-05T08:13:26Z</time>
      </trkpt>
      <trkpt lat="45.749" lon="4.23955">
        <ele>339.48</ele>
        <time>2016-09-05T08:13:43Z</time>
      </trkpt>
      <trkpt lat="45.74911" lon="4.23971">
        <ele>342.37</ele>
        <time>2016-09-05T08:13:58Z</time>
      </trkpt>
      <trkpt lat="45.7492" lon="4.23997">
        <ele>345.25</ele>
        <time>2016-09-05T08:14:16Z</time>
      </trkpt>
      <trkpt lat="45.74929" lon="4.24028">
        <ele>348.13</ele>
        <time>2016-09-05T08:14:36Z</time>
      </trkpt>
      <trkpt lat="45.74926" lon="4.24061">
        <ele>355.34</ele>
        <time>2016-09-05T08:14:58Z</time>
      </trkpt>
      <trkpt lat="45.74921" lon="4.24067">
        <ele>356.79</ele>
        <time>2016-09-05T08:15:04Z</time>
      </trkpt>
      <trkpt lat="45.74896" lon="4.24093">
        <ele>358.71</ele>
        <time>2016-09-05T08:15:26Z</time>
      </trkpt>
      <trkpt lat="45.74879" lon="4.24116">
        <ele>355.83</ele>
        <time>2016-09-05T08:15:44Z</time>
      </trkpt>
      <trkpt lat="45.7486" lon="4.2414">
        <ele>351.02</ele>
        <time>2016-09-05T08:16:04Z</time>
      </trkpt>
      <trkpt lat="45.74847" lon="4.24159">
        <ele>349.58</ele>
        <time>2016-09-05T08:16:21Z</time>
      </trkpt>
      <trkpt lat="45.74832" lon="4.24178">
        <ele>347.17</ele>
        <time>2016-09-05T08:16:39Z</time>
      </trkpt>
      <trkpt lat="45.74821" lon="4.24194">
        <ele>348.13</ele>
        <time>2016-09-05T08:16:53Z</time>
      </trkpt>
      <trkpt lat="45.74805" lon="4.24209">
        <ele>348.62</ele>
        <time>2016-09-05T08:17:09Z</time>
      </trkpt>
      <trkpt lat="45.7479" lon="4.24227">
        <ele>346.69</ele>
        <time>2016-09-05T08:17:26Z</time>
      </trkpt>
      <trkpt lat="45.74776" lon="4.24253">
        <ele>346.69</ele>
        <time>2016-09-05T08:17:45Z</time>
      </trkpt>
      <trkpt lat="45.74771" lon="4.24279">
        <ele>348.13</ele>
        <time>2016-09-05T08:18:03Z</time>
      </trkpt>
      <trkpt lat="45.74765" lon="4.24293">
        <ele>350.54</ele>
        <time>2016-09-05T08:18:15Z</time>
      </trkpt>
      <trkpt lat="45.74756" lon="4.24309">
        <ele>353.42</ele>
        <time>2016-09-05T08:18:27Z</time>
      </trkpt>
      <trkpt lat="45.74738" lon="4.24331">
        <ele>353.42</ele>
        <time>2016-09-05T08:18:46Z</time>
      </trkpt>
      <trkpt lat="45.74724" lon="4.2435">
        <ele>350.06</ele>
        <time>2016-09-05T08:19:01Z</time>
      </trkpt>
      <trkpt lat="45.7471" lon="4.24376">
        <ele>348.62</ele>
        <time>2016-09-05T08:19:19Z</time>
      </trkpt>
      <trkpt lat="45.74708" lon="4.24392">
        <ele>348.13</ele>
        <time>2016-09-05T08:19:34Z</time>
      </trkpt>
      <trkpt lat="45.74713" lon="4.2442">
        <ele>348.62</ele>
        <time>2016-09-05T08:19:52Z</time>
      </trkpt>
      <trkpt lat="45.74717" lon="4.24444">
        <ele>348.13</ele>
        <time>2016-09-05T08:20:08Z</time>
      </trkpt>
      <trkpt lat="45.74724" lon="4.2447">
        <ele>350.54</ele>
        <time>2016-09-05T08:20:25Z</time>
      </trkpt>
      <trkpt lat="45.74725" lon="4.24472">
        <ele>350.54</ele>
        <time>2016-09-05T08:20:26Z</time>
      </trkpt>
      <trkpt lat="45.74735" lon="4.24503">
        <ele>355.34</ele>
        <time>2016-09-05T08:20:42Z</time>
      </trkpt>
      <trkpt lat="45.74749" lon="4.24537">
        <ele>353.42</ele>
        <time>2016-09-05T08:21:02Z</time>
      </trkpt>
      <trkpt lat="45.74763" lon="4.24555">
        <ele>357.27</ele>
        <time>2016-09-05T08:21:19Z</time>
      </trkpt>
      <trkpt lat="45.74774" lon="4.24575">
        <ele>359.19</ele>
        <time>2016-09-05T08:21:38Z</time>
      </trkpt>
      <trkpt lat="45.74777" lon="4.24583">
        <ele>359.67</ele>
        <time>2016-09-05T08:21:52Z</time>
      </trkpt>
      <trkpt lat="45.74778" lon="4.24611">
        <ele>365.44</ele>
        <time>2016-09-05T08:22:08Z</time>
      </trkpt>
      <trkpt lat="45.74781" lon="4.24634">
        <ele>369.28</ele>
        <time>2016-09-05T08:22:21Z</time>
      </trkpt>
      <trkpt lat="45.74781" lon="4.2464">
        <ele>369.76</ele>
        <time>2016-09-05T08:22:39Z</time>
      </trkpt>
      <trkpt lat="45.74783" lon="4.24665">
        <ele>374.57</ele>
        <time>2016-09-05T08:22:59Z</time>
      </trkpt>
      <trkpt lat="45.74783" lon="4.24677">
        <ele>376.01</ele>
        <time>2016-09-05T08:23:04Z</time>
      </trkpt>
      <trkpt lat="45.74766" lon="4.24739">
        <ele>378.42</ele>
        <time>2016-09-05T08:23:25Z</time>
      </trkpt>
      <trkpt lat="45.74752" lon="4.24775">
        <ele>379.38</ele>
        <time>2016-09-05T08:23:42Z</time>
      </trkpt>
      <trkpt lat="45.74745" lon="4.2481">
        <ele>363.52</ele>
        <time>2016-09-05T08:23:59Z</time>
      </trkpt>
      <trkpt lat="45.74737" lon="4.24834">
        <ele>364</ele>
        <time>2016-09-05T08:24:17Z</time>
      </trkpt>
      <trkpt lat="45.74733" lon="4.2487">
        <ele>356.31</ele>
        <time>2016-09-05T08:24:36Z</time>
      </trkpt>
      <trkpt lat="45.74736" lon="4.24893">
        <ele>350.54</ele>
        <time>2016-09-05T08:24:51Z</time>
      </trkpt>
      <trkpt lat="45.74738" lon="4.24897">
        <ele>350.06</ele>
        <time>2016-09-05T08:24:54Z</time>
      </trkpt>
      <trkpt lat="45.74756" lon="4.24921">
        <ele>350.54</ele>
        <time>2016-09-05T08:25:08Z</time>
      </trkpt>
      <trkpt lat="45.74775" lon="4.24929">
        <ele>354.86</ele>
        <time>2016-09-05T08:25:23Z</time>
      </trkpt>
      <trkpt lat="45.74791" lon="4.24934">
        <ele>356.79</ele>
        <time>2016-09-05T08:25:37Z</time>
      </trkpt>
      <trkpt lat="45.7481" lon="4.24942">
        <ele>357.75</ele>
        <time>2016-09-05T08:25:53Z</time>
      </trkpt>
      <trkpt lat="45.74813" lon="4.2495">
        <ele>361.11</ele>
        <time>2016-09-05T08:26:08Z</time>
      </trkpt>
      <trkpt lat="45.74813" lon="4.24983">
        <ele>367.84</ele>
        <time>2016-09-05T08:26:25Z</time>
      </trkpt>
      <trkpt lat="45.74811" lon="4.2499">
        <ele>369.76</ele>
        <time>2016-09-05T08:26:29Z</time>
      </trkpt>
      <trkpt lat="45.74799" lon="4.25014">
        <ele>372.17</ele>
        <time>2016-09-05T08:26:46Z</time>
      </trkpt>
      <trkpt lat="45.74791" lon="4.25051">
        <ele>373.13</ele>
        <time>2016-09-05T08:27:06Z</time>
      </trkpt>
      <trkpt lat="45.74777" lon="4.25073">
        <ele>369.76</ele>
        <time>2016-09-05T08:27:24Z</time>
      </trkpt>
      <trkpt lat="45.74767" lon="4.25091">
        <ele>365.92</ele>
        <time>2016-09-05T08:27:40Z</time>
      </trkpt>
      <trkpt lat="45.74765" lon="4.25093">
        <ele>364.96</ele>
        <time>2016-09-05T08:27:48Z</time>
      </trkpt>
      <trkpt lat="45.74758" lon="4.25094">
        <ele>363.52</ele>
        <time>2016-09-05T08:28:03Z</time>
      </trkpt>
      <trkpt lat="45.74745" lon="4.25094">
        <ele>359.67</ele>
        <time>2016-09-05T08:28:21Z</time>
      </trkpt>
      <trkpt lat="45.74721" lon="4.25093">
        <ele>358.23</ele>
        <time>2016-09-05T08:28:39Z</time>
      </trkpt>
      <trkpt lat="45.74698" lon="4.25089">
        <ele>356.31</ele>
        <time>2016-09-05T08:28:55Z</time>
      </trkpt>
      <trkpt lat="45.74675" lon="4.25086">
        <ele>354.38</ele>
        <time>2016-09-05T08:29:14Z</time>
      </trkpt>
      <trkpt lat="45.74661" lon="4.25094">
        <ele>356.31</ele>
        <time>2016-09-05T08:29:26Z</time>
      </trkpt>
      <trkpt lat="45.74646" lon="4.25117">
        <ele>363.04</ele>
        <time>2016-09-05T08:29:46Z</time>
      </trkpt>
      <trkpt lat="45.7464" lon="4.25139">
        <ele>372.65</ele>
        <time>2016-09-05T08:30:02Z</time>
      </trkpt>
      <trkpt lat="45.74642" lon="4.25167">
        <ele>378.9</ele>
        <time>2016-09-05T08:30:21Z</time>
      </trkpt>
      <trkpt lat="45.74643" lon="4.25202">
        <ele>369.76</ele>
        <time>2016-09-05T08:30:36Z</time>
      </trkpt>
      <trkpt lat="45.74649" lon="4.25223">
        <ele>364.96</ele>
        <time>2016-09-05T08:30:49Z</time>
      </trkpt>
      <trkpt lat="45.74657" lon="4.25247">
        <ele>367.36</ele>
        <time>2016-09-05T08:31:05Z</time>
      </trkpt>
      <trkpt lat="45.74667" lon="4.25263">
        <ele>369.28</ele>
        <time>2016-09-05T08:31:15Z</time>
      </trkpt>
      <trkpt lat="45.74686" lon="4.25286">
        <ele>372.17</ele>
        <time>2016-09-05T08:31:30Z</time>
      </trkpt>
      <trkpt lat="45.74708" lon="4.25294">
        <ele>372.65</ele>
        <time>2016-09-05T08:31:46Z</time>
      </trkpt>
      <trkpt lat="45.74724" lon="4.25302">
        <ele>365.44</ele>
        <time>2016-09-05T08:32:03Z</time>
      </trkpt>
      <trkpt lat="45.74738" lon="4.25311">
        <ele>357.75</ele>
        <time>2016-09-05T08:32:16Z</time>
      </trkpt>
      <trkpt lat="45.74741" lon="4.25313">
        <ele>356.79</ele>
        <time>2016-09-05T08:32:19Z</time>
      </trkpt>
      <trkpt lat="45.74762" lon="4.25316">
        <ele>351.98</ele>
        <time>2016-09-05T08:32:35Z</time>
      </trkpt>
      <trkpt lat="45.74769" lon="4.25319">
        <ele>351.02</ele>
        <time>2016-09-05T08:32:42Z</time>
      </trkpt>
      <trkpt lat="45.74785" lon="4.25323">
        <ele>349.58</ele>
        <time>2016-09-05T08:32:55Z</time>
      </trkpt>
      <trkpt lat="45.7481" lon="4.25325">
        <ele>346.69</ele>
        <time>2016-09-05T08:33:13Z</time>
      </trkpt>
      <trkpt lat="45.7483" lon="4.25331">
        <ele>346.69</ele>
        <time>2016-09-05T08:33:28Z</time>
      </trkpt>
      <trkpt lat="45.7485" lon="4.25337">
        <ele>347.65</ele>
        <time>2016-09-05T08:33:44Z</time>
      </trkpt>
      <trkpt lat="45.74868" lon="4.25343">
        <ele>347.65</ele>
        <time>2016-09-05T08:33:59Z</time>
      </trkpt>
      <trkpt lat="45.74886" lon="4.25352">
        <ele>352.46</ele>
        <time>2016-09-05T08:34:15Z</time>
      </trkpt>
      <trkpt lat="45.74905" lon="4.25357">
        <ele>358.23</ele>
        <time>2016-09-05T08:34:30Z</time>
      </trkpt>
      <trkpt lat="45.74927" lon="4.25364">
        <ele>366.4</ele>
        <time>2016-09-05T08:34:46Z</time>
      </trkpt>
      <trkpt lat="45.74953" lon="4.25374">
        <ele>370.24</ele>
        <time>2016-09-05T08:35:05Z</time>
      </trkpt>
      <trkpt lat="45.74962" lon="4.25374">
        <ele>367.84</ele>
        <time>2016-09-05T08:35:11Z</time>
      </trkpt>
      <trkpt lat="45.74978" lon="4.25382">
        <ele>364.96</ele>
        <time>2016-09-05T08:35:26Z</time>
      </trkpt>
      <trkpt lat="45.74978" lon="4.25385">
        <ele>366.88</ele>
        <time>2016-09-05T08:35:30Z</time>
      </trkpt>
      <trkpt lat="45.74982" lon="4.25404">
        <ele>368.8</ele>
        <time>2016-09-05T08:35:46Z</time>
      </trkpt>
      <trkpt lat="45.74982" lon="4.25405">
        <ele>369.28</ele>
        <time>2016-09-05T08:35:47Z</time>
      </trkpt>
      <trkpt lat="45.75002" lon="4.25412">
        <ele>364</ele>
        <time>2016-09-05T08:36:04Z</time>
      </trkpt>
      <trkpt lat="45.75022" lon="4.25419">
        <ele>364</ele>
        <time>2016-09-05T08:36:20Z</time>
      </trkpt>
      <trkpt lat="45.75049" lon="4.2542">
        <ele>362.07</ele>
        <time>2016-09-05T08:36:41Z</time>
      </trkpt>
      <trkpt lat="45.75068" lon="4.25426">
        <ele>366.88</ele>
        <time>2016-09-05T08:36:57Z</time>
      </trkpt>
      <trkpt lat="45.75091" lon="4.25436">
        <ele>373.13</ele>
        <time>2016-09-05T08:37:15Z</time>
      </trkpt>
      <trkpt lat="45.75113" lon="4.25453">
        <ele>373.13</ele>
        <time>2016-09-05T08:37:34Z</time>
      </trkpt>
      <trkpt lat="45.75137" lon="4.25466">
        <ele>376.97</ele>
        <time>2016-09-05T08:37:54Z</time>
      </trkpt>
      <trkpt lat="45.75158" lon="4.25478">
        <ele>376.49</ele>
        <time>2016-09-05T08:38:11Z</time>
      </trkpt>
      <trkpt lat="45.7518" lon="4.2549">
        <ele>375.05</ele>
        <time>2016-09-05T08:38:30Z</time>
      </trkpt>
      <trkpt lat="45.75204" lon="4.25502">
        <ele>376.97</ele>
        <time>2016-09-05T08:38:49Z</time>
      </trkpt>
      <trkpt lat="45.75225" lon="4.25517">
        <ele>376.49</ele>
        <time>2016-09-05T08:39:06Z</time>
      </trkpt>
      <trkpt lat="45.75244" lon="4.25526">
        <ele>374.09</ele>
        <time>2016-09-05T08:39:24Z</time>
      </trkpt>
      <trkpt lat="45.75262" lon="4.25533">
        <ele>373.61</ele>
        <time>2016-09-05T08:39:40Z</time>
      </trkpt>
      <trkpt lat="45.75287" lon="4.25547">
        <ele>376.01</ele>
        <time>2016-09-05T08:39:59Z</time>
      </trkpt>
      <trkpt lat="45.75308" lon="4.2556">
        <ele>381.3</ele>
        <time>2016-09-05T08:40:16Z</time>
      </trkpt>
      <trkpt lat="45.75328" lon="4.25571">
        <ele>382.74</ele>
        <time>2016-09-05T08:40:32Z</time>
      </trkpt>
      <trkpt lat="45.75349" lon="4.25582">
        <ele>381.78</ele>
        <time>2016-09-05T08:40:49Z</time>
      </trkpt>
      <trkpt lat="45.75363" lon="4.25611">
        <ele>375.53</ele>
        <time>2016-09-05T08:41:06Z</time>
      </trkpt>
      <trkpt lat="45.75376" lon="4.25637">
        <ele>368.8</ele>
        <time>2016-09-05T08:41:23Z</time>
      </trkpt>
      <trkpt lat="45.75391" lon="4.25661">
        <ele>366.4</ele>
        <time>2016-09-05T08:41:40Z</time>
      </trkpt>
      <trkpt lat="45.75406" lon="4.25686">
        <ele>364</ele>
        <time>2016-09-05T08:41:57Z</time>
      </trkpt>
      <trkpt lat="45.7542" lon="4.2571">
        <ele>363.52</ele>
        <time>2016-09-05T08:42:13Z</time>
      </trkpt>
      <trkpt lat="45.75435" lon="4.25736">
        <ele>364</ele>
        <time>2016-09-05T08:42:32Z</time>
      </trkpt>
      <trkpt lat="45.75443" lon="4.25756">
        <ele>364.48</ele>
        <time>2016-09-05T08:42:48Z</time>
      </trkpt>
      <trkpt lat="45.75449" lon="4.25775">
        <ele>363.52</ele>
        <time>2016-09-05T08:43:04Z</time>
      </trkpt>
      <trkpt lat="45.75457" lon="4.25794">
        <ele>362.55</ele>
        <time>2016-09-05T08:43:21Z</time>
      </trkpt>
      <trkpt lat="45.75467" lon="4.25821">
        <ele>364.48</ele>
        <time>2016-09-05T08:43:39Z</time>
      </trkpt>
      <trkpt lat="45.75473" lon="4.25837">
        <ele>364.96</ele>
        <time>2016-09-05T08:43:49Z</time>
      </trkpt>
      <trkpt lat="45.75486" lon="4.25868">
        <ele>366.4</ele>
        <time>2016-09-05T08:44:05Z</time>
      </trkpt>
      <trkpt lat="45.75502" lon="4.25896">
        <ele>368.32</ele>
        <time>2016-09-05T08:44:21Z</time>
      </trkpt>
      <trkpt lat="45.75518" lon="4.25918">
        <ele>371.21</ele>
        <time>2016-09-05T08:44:39Z</time>
      </trkpt>
      <trkpt lat="45.75536" lon="4.25933">
        <ele>374.09</ele>
        <time>2016-09-05T08:44:56Z</time>
      </trkpt>
      <trkpt lat="45.7555" lon="4.25948">
        <ele>374.57</ele>
        <time>2016-09-05T08:45:11Z</time>
      </trkpt>
      <trkpt lat="45.75565" lon="4.25967">
        <ele>375.53</ele>
        <time>2016-09-05T08:45:28Z</time>
      </trkpt>
      <trkpt lat="45.75583" lon="4.25998">
        <ele>373.61</ele>
        <time>2016-09-05T08:45:47Z</time>
      </trkpt>
      <trkpt lat="45.756" lon="4.26027">
        <ele>372.17</ele>
        <time>2016-09-05T08:46:07Z</time>
      </trkpt>
      <trkpt lat="45.75615" lon="4.26048">
        <ele>372.17</ele>
        <time>2016-09-05T08:46:24Z</time>
      </trkpt>
      <trkpt lat="45.75629" lon="4.26071">
        <ele>372.17</ele>
        <time>2016-09-05T08:46:42Z</time>
      </trkpt>
      <trkpt lat="45.75634" lon="4.26079">
        <ele>372.65</ele>
        <time>2016-09-05T08:46:48Z</time>
      </trkpt>
      <trkpt lat="45.75644" lon="4.26091">
        <ele>373.61</ele>
        <time>2016-09-05T08:47:01Z</time>
      </trkpt>
      <trkpt lat="45.75658" lon="4.26113">
        <ele>375.53</ele>
        <time>2016-09-05T08:47:17Z</time>
      </trkpt>
      <trkpt lat="45.75672" lon="4.26139">
        <ele>374.09</ele>
        <time>2016-09-05T08:47:33Z</time>
      </trkpt>
      <trkpt lat="45.75672" lon="4.26141">
        <ele>374.09</ele>
        <time>2016-09-05T08:47:35Z</time>
      </trkpt>
      <trkpt lat="45.75675" lon="4.26164">
        <ele>376.01</ele>
        <time>2016-09-05T08:47:50Z</time>
      </trkpt>
      <trkpt lat="45.75685" lon="4.26185">
        <ele>378.9</ele>
        <time>2016-09-05T08:48:07Z</time>
      </trkpt>
      <trkpt lat="45.75692" lon="4.26204">
        <ele>381.78</ele>
        <time>2016-09-05T08:48:21Z</time>
      </trkpt>
      <trkpt lat="45.757" lon="4.26224">
        <ele>383.7</ele>
        <time>2016-09-05T08:48:36Z</time>
      </trkpt>
      <trkpt lat="45.75711" lon="4.26259">
        <ele>388.03</ele>
        <time>2016-09-05T08:48:55Z</time>
      </trkpt>
      <trkpt lat="45.7572" lon="4.26284">
        <ele>393.8</ele>
        <time>2016-09-05T08:49:11Z</time>
      </trkpt>
      <trkpt lat="45.75729" lon="4.26309">
        <ele>395.72</ele>
        <time>2016-09-05T08:49:26Z</time>
      </trkpt>
      <trkpt lat="45.75738" lon="4.26336">
        <ele>399.08</ele>
        <time>2016-09-05T08:49:42Z</time>
      </trkpt>
      <trkpt lat="45.75745" lon="4.2636">
        <ele>399.57</ele>
        <time>2016-09-05T08:49:58Z</time>
      </trkpt>
      <trkpt lat="45.75755" lon="4.26385">
        <ele>404.37</ele>
        <time>2016-09-05T08:50:15Z</time>
      </trkpt>
      <trkpt lat="45.75759" lon="4.264">
        <ele>411.1</ele>
        <time>2016-09-05T08:50:26Z</time>
      </trkpt>
      <trkpt lat="45.75766" lon="4.26427">
        <ele>417.35</ele>
        <time>2016-09-05T08:50:41Z</time>
      </trkpt>
      <trkpt lat="45.75775" lon="4.2645">
        <ele>415.91</ele>
        <time>2016-09-05T08:50:56Z</time>
      </trkpt>
      <trkpt lat="45.75781" lon="4.26469">
        <ele>411.1</ele>
        <time>2016-09-05T08:51:09Z</time>
      </trkpt>
      <trkpt lat="45.75786" lon="4.26501">
        <ele>400.53</ele>
        <time>2016-09-05T08:51:27Z</time>
      </trkpt>
      <trkpt lat="45.75794" lon="4.2653">
        <ele>396.68</ele>
        <time>2016-09-05T08:51:44Z</time>
      </trkpt>
      <trkpt lat="45.75802" lon="4.26559">
        <ele>393.32</ele>
        <time>2016-09-05T08:52:00Z</time>
      </trkpt>
      <trkpt lat="45.75811" lon="4.26586">
        <ele>390.91</ele>
        <time>2016-09-05T08:52:17Z</time>
      </trkpt>
      <trkpt lat="45.75822" lon="4.26616">
        <ele>388.03</ele>
        <time>2016-09-05T08:52:35Z</time>
      </trkpt>
      <trkpt lat="45.75833" lon="4.26646">
        <ele>387.07</ele>
        <time>2016-09-05T08:52:53Z</time>
      </trkpt>
      <trkpt lat="45.75846" lon="4.26673">
        <ele>386.59</ele>
        <time>2016-09-05T08:53:11Z</time>
      </trkpt>
      <trkpt lat="45.75863" lon="4.26693">
        <ele>390.43</ele>
        <time>2016-09-05T08:53:28Z</time>
      </trkpt>
      <trkpt lat="45.75875" lon="4.26708">
        <ele>392.36</ele>
        <time>2016-09-05T08:53:44Z</time>
      </trkpt>
      <trkpt lat="45.75877" lon="4.2671">
        <ele>392.36</ele>
        <time>2016-09-05T08:53:46Z</time>
      </trkpt>
      <trkpt lat="45.75884" lon="4.26714">
        <ele>392.36</ele>
        <time>2016-09-05T08:53:52Z</time>
      </trkpt>
      <trkpt lat="45.7591" lon="4.2673">
        <ele>393.32</ele>
        <time>2016-09-05T08:54:14Z</time>
      </trkpt>
      <trkpt lat="45.75932" lon="4.26742">
        <ele>396.2</ele>
        <time>2016-09-05T08:54:33Z</time>
      </trkpt>
      <trkpt lat="45.75952" lon="4.26759">
        <ele>398.12</ele>
        <time>2016-09-05T08:54:51Z</time>
      </trkpt>
      <trkpt lat="45.75966" lon="4.26781">
        <ele>395.72</ele>
        <time>2016-09-05T08:55:08Z</time>
      </trkpt>
      <trkpt lat="45.75972" lon="4.2681">
        <ele>395.24</ele>
        <time>2016-09-05T08:55:26Z</time>
      </trkpt>
      <trkpt lat="45.75971" lon="4.26821">
        <ele>395.24</ele>
        <time>2016-09-05T08:55:33Z</time>
      </trkpt>
      <trkpt lat="45.75949" lon="4.26835">
        <ele>394.28</ele>
        <time>2016-09-05T08:55:52Z</time>
      </trkpt>
      <trkpt lat="45.75926" lon="4.26844">
        <ele>391.87</ele>
        <time>2016-09-05T08:56:11Z</time>
      </trkpt>
      <trkpt lat="45.759" lon="4.26854">
        <ele>390.91</ele>
        <time>2016-09-05T08:56:29Z</time>
      </trkpt>
      <trkpt lat="45.75875" lon="4.26864">
        <ele>388.03</ele>
        <time>2016-09-05T08:56:48Z</time>
      </trkpt>
      <trkpt lat="45.75868" lon="4.26866">
        <ele>388.03</ele>
        <time>2016-09-05T08:56:59Z</time>
      </trkpt>
      <trkpt lat="45.75861" lon="4.26876">
        <ele>388.03</ele>
        <time>2016-09-05T08:57:09Z</time>
      </trkpt>
      <trkpt lat="45.75865" lon="4.26897">
        <ele>390.91</ele>
        <time>2016-09-05T08:57:25Z</time>
      </trkpt>
      <trkpt lat="45.75871" lon="4.26923">
        <ele>398.12</ele>
        <time>2016-09-05T08:57:41Z</time>
      </trkpt>
      <trkpt lat="45.75879" lon="4.26952">
        <ele>399.08</ele>
        <time>2016-09-05T08:57:59Z</time>
      </trkpt>
      <trkpt lat="45.75889" lon="4.26982">
        <ele>399.08</ele>
        <time>2016-09-05T08:58:17Z</time>
      </trkpt>
      <trkpt lat="45.75891" lon="4.26989">
        <ele>399.08</ele>
        <time>2016-09-05T08:58:22Z</time>
      </trkpt>
      <trkpt lat="45.75893" lon="4.26991">
        <ele>399.08</ele>
        <time>2016-09-05T08:58:24Z</time>
      </trkpt>
      <trkpt lat="45.75902" lon="4.2701">
        <ele>400.53</ele>
        <time>2016-09-05T08:58:38Z</time>
      </trkpt>
      <trkpt lat="45.75908" lon="4.27037">
        <ele>402.93</ele>
        <time>2016-09-05T08:58:56Z</time>
      </trkpt>
      <trkpt lat="45.75918" lon="4.27058">
        <ele>402.93</ele>
        <time>2016-09-05T08:59:11Z</time>
      </trkpt>
      <trkpt lat="45.75932" lon="4.2708">
        <ele>404.37</ele>
        <time>2016-09-05T08:59:29Z</time>
      </trkpt>
      <trkpt lat="45.75943" lon="4.27091">
        <ele>405.33</ele>
        <time>2016-09-05T08:59:43Z</time>
      </trkpt>
      <trkpt lat="45.75955" lon="4.27103">
        <ele>407.74</ele>
        <time>2016-09-05T08:59:57Z</time>
      </trkpt>
      <trkpt lat="45.75966" lon="4.27112">
        <ele>409.66</ele>
        <time>2016-09-05T09:00:10Z</time>
      </trkpt>
      <trkpt lat="45.75979" lon="4.27127">
        <ele>413.5</ele>
        <time>2016-09-05T09:00:27Z</time>
      </trkpt>
      <trkpt lat="45.7599" lon="4.27141">
        <ele>417.35</ele>
        <time>2016-09-05T09:00:41Z</time>
      </trkpt>
      <trkpt lat="45.76" lon="4.27149">
        <ele>421.19</ele>
        <time>2016-09-05T09:00:55Z</time>
      </trkpt>
      <trkpt lat="45.7601" lon="4.27161">
        <ele>423.12</ele>
        <time>2016-09-05T09:01:10Z</time>
      </trkpt>
      <trkpt lat="45.76009" lon="4.27173">
        <ele>424.56</ele>
        <time>2016-09-05T09:01:24Z</time>
      </trkpt>
      <trkpt lat="45.76002" lon="4.27198">
        <ele>425.52</ele>
        <time>2016-09-05T09:01:43Z</time>
      </trkpt>
      <trkpt lat="45.75997" lon="4.2722">
        <ele>428.89</ele>
        <time>2016-09-05T09:01:58Z</time>
      </trkpt>
      <trkpt lat="45.7599" lon="4.2724">
        <ele>432.25</ele>
        <time>2016-09-05T09:02:13Z</time>
      </trkpt>
      <trkpt lat="45.75984" lon="4.2725">
        <ele>434.65</ele>
        <time>2016-09-05T09:02:20Z</time>
      </trkpt>
      <trkpt lat="45.75979" lon="4.27283">
        <ele>440.42</ele>
        <time>2016-09-05T09:02:38Z</time>
      </trkpt>
      <trkpt lat="45.75978" lon="4.27313">
        <ele>442.34</ele>
        <time>2016-09-05T09:02:54Z</time>
      </trkpt>
      <trkpt lat="45.75977" lon="4.27322">
        <ele>439.46</ele>
        <time>2016-09-05T09:03:08Z</time>
      </trkpt>
      <trkpt lat="45.75975" lon="4.27323">
        <ele>437.54</ele>
        <time>2016-09-05T09:03:29Z</time>
      </trkpt>
      <trkpt lat="45.75971" lon="4.27324">
        <ele>433.21</ele>
        <time>2016-09-05T09:03:48Z</time>
      </trkpt>
      <trkpt lat="45.7597" lon="4.27325">
        <ele>430.81</ele>
        <time>2016-09-05T09:04:07Z</time>
      </trkpt>
      <trkpt lat="45.75971" lon="4.27326">
        <ele>428.89</ele>
        <time>2016-09-05T09:04:34Z</time>
      </trkpt>
      <trkpt lat="45.75971" lon="4.27326">
        <ele>428.4</ele>
        <time>2016-09-05T09:04:57Z</time>
      </trkpt>
      <trkpt lat="45.75971" lon="4.27326">
        <ele>429.37</ele>
        <time>2016-09-05T09:05:18Z</time>
      </trkpt>
      <trkpt lat="45.75971" lon="4.27324">
        <ele>428.4</ele>
        <time>2016-09-05T09:05:34Z</time>
      </trkpt>
      <trkpt lat="45.75971" lon="4.27322">
        <ele>427.44</ele>
        <time>2016-09-05T09:06:05Z</time>
      </trkpt>
      <trkpt lat="45.75972" lon="4.2732">
        <ele>426</ele>
        <time>2016-09-05T09:06:36Z</time>
      </trkpt>
      <trkpt lat="45.75972" lon="4.27321">
        <ele>425.04</ele>
        <time>2016-09-05T09:07:12Z</time>
      </trkpt>
      <trkpt lat="45.75971" lon="4.27321">
        <ele>424.56</ele>
        <time>2016-09-05T09:07:38Z</time>
      </trkpt>
      <trkpt lat="45.75971" lon="4.27322">
        <ele>424.08</ele>
        <time>2016-09-05T09:07:54Z</time>
      </trkpt>
      <trkpt lat="45.75972" lon="4.27322">
        <ele>424.08</ele>
        <time>2016-09-05T09:08:14Z</time>
      </trkpt>
      <trkpt lat="45.75972" lon="4.27322">
        <ele>424.08</ele>
        <time>2016-09-05T09:08:36Z</time>
      </trkpt>
      <trkpt lat="45.75972" lon="4.27322">
        <ele>423.6</ele>
        <time>2016-09-05T09:09:01Z</time>
      </trkpt>
      <trkpt lat="45.75972" lon="4.27321">
        <ele>423.6</ele>
        <time>2016-09-05T09:09:23Z</time>
      </trkpt>
      <trkpt lat="45.75972" lon="4.27321">
        <ele>423.6</ele>
        <time>2016-09-05T09:09:50Z</time>
      </trkpt>
      <trkpt lat="45.75973" lon="4.27321">
        <ele>423.12</ele>
        <time>2016-09-05T09:10:16Z</time>
      </trkpt>
      <trkpt lat="45.75973" lon="4.27321">
        <ele>423.12</ele>
        <time>2016-09-05T09:10:36Z</time>
      </trkpt>
      <trkpt lat="45.75974" lon="4.27322">
        <ele>423.6</ele>
        <time>2016-09-05T09:10:56Z</time>
      </trkpt>
      <trkpt lat="45.75977" lon="4.27314">
        <ele>423.6</ele>
        <time>2016-09-05T09:11:12Z</time>
      </trkpt>
      <trkpt lat="45.75976" lon="4.27314">
        <ele>423.12</ele>
        <time>2016-09-05T09:11:35Z</time>
      </trkpt>
      <trkpt lat="45.75976" lon="4.27315">
        <ele>423.12</ele>
        <time>2016-09-05T09:12:08Z</time>
      </trkpt>
      <trkpt lat="45.75977" lon="4.27319">
        <ele>423.6</ele>
        <time>2016-09-05T09:12:26Z</time>
      </trkpt>
      <trkpt lat="45.75975" lon="4.27326">
        <ele>425.52</ele>
        <time>2016-09-05T09:12:40Z</time>
      </trkpt>
      <trkpt lat="45.75972" lon="4.27332">
        <ele>427.44</ele>
        <time>2016-09-05T09:12:57Z</time>
      </trkpt>
      <trkpt lat="45.75965" lon="4.27354">
        <ele>427.44</ele>
        <time>2016-09-05T09:13:16Z</time>
      </trkpt>
      <trkpt lat="45.75956" lon="4.27369">
        <ele>427.44</ele>
        <time>2016-09-05T09:13:31Z</time>
      </trkpt>
      <trkpt lat="45.75943" lon="4.27397">
        <ele>426.48</ele>
        <time>2016-09-05T09:13:49Z</time>
      </trkpt>
      <trkpt lat="45.75929" lon="4.27422">
        <ele>425.52</ele>
        <time>2016-09-05T09:14:06Z</time>
      </trkpt>
      <trkpt lat="45.75921" lon="4.27439">
        <ele>425.52</ele>
        <time>2016-09-05T09:14:19Z</time>
      </trkpt>
      <trkpt lat="45.75913" lon="4.27448">
        <ele>424.56</ele>
        <time>2016-09-05T09:14:26Z</time>
      </trkpt>
      <trkpt lat="45.75911" lon="4.27482">
        <ele>423.6</ele>
        <time>2016-09-05T09:14:44Z</time>
      </trkpt>
      <trkpt lat="45.759" lon="4.27504">
        <ele>421.68</ele>
        <time>2016-09-05T09:15:02Z</time>
      </trkpt>
      <trkpt lat="45.75882" lon="4.2751">
        <ele>425.04</ele>
        <time>2016-09-05T09:15:21Z</time>
      </trkpt>
      <trkpt lat="45.75856" lon="4.27509">
        <ele>428.4</ele>
        <time>2016-09-05T09:15:42Z</time>
      </trkpt>
      <trkpt lat="45.75843" lon="4.2751">
        <ele>431.77</ele>
        <time>2016-09-05T09:15:56Z</time>
      </trkpt>
      <trkpt lat="45.75822" lon="4.27514">
        <ele>433.69</ele>
        <time>2016-09-05T09:16:16Z</time>
      </trkpt>
      <trkpt lat="45.75805" lon="4.2752">
        <ele>435.13</ele>
        <time>2016-09-05T09:16:37Z</time>
      </trkpt>
      <trkpt lat="45.75779" lon="4.27529">
        <ele>434.17</ele>
        <time>2016-09-05T09:16:57Z</time>
      </trkpt>
      <trkpt lat="45.75751" lon="4.27547">
        <ele>432.73</ele>
        <time>2016-09-05T09:17:20Z</time>
      </trkpt>
      <trkpt lat="45.75731" lon="4.27559">
        <ele>429.85</ele>
        <time>2016-09-05T09:17:37Z</time>
      </trkpt>
      <trkpt lat="45.75729" lon="4.27561">
        <ele>429.85</ele>
        <time>2016-09-05T09:17:39Z</time>
      </trkpt>
      <trkpt lat="45.75711" lon="4.27587">
        <ele>430.33</ele>
        <time>2016-09-05T09:18:00Z</time>
      </trkpt>
      <trkpt lat="45.75695" lon="4.27611">
        <ele>429.85</ele>
        <time>2016-09-05T09:18:18Z</time>
      </trkpt>
      <trkpt lat="45.75684" lon="4.27637">
        <ele>429.37</ele>
        <time>2016-09-05T09:18:36Z</time>
      </trkpt>
      <trkpt lat="45.75665" lon="4.27666">
        <ele>430.33</ele>
        <time>2016-09-05T09:18:59Z</time>
      </trkpt>
      <trkpt lat="45.75646" lon="4.27689">
        <ele>429.85</ele>
        <time>2016-09-05T09:19:19Z</time>
      </trkpt>
      <trkpt lat="45.75623" lon="4.27716">
        <ele>429.37</ele>
        <time>2016-09-05T09:19:43Z</time>
      </trkpt>
      <trkpt lat="45.75605" lon="4.27735">
        <ele>430.33</ele>
        <time>2016-09-05T09:20:01Z</time>
      </trkpt>
      <trkpt lat="45.75601" lon="4.27739">
        <ele>430.81</ele>
        <time>2016-09-05T09:20:05Z</time>
      </trkpt>
      <trkpt lat="45.75578" lon="4.27733">
        <ele>429.85</ele>
        <time>2016-09-05T09:20:25Z</time>
      </trkpt>
      <trkpt lat="45.7556" lon="4.2772">
        <ele>427.44</ele>
        <time>2016-09-05T09:20:42Z</time>
      </trkpt>
      <trkpt lat="45.75537" lon="4.27726">
        <ele>427.44</ele>
        <time>2016-09-05T09:21:02Z</time>
      </trkpt>
      <trkpt lat="45.75517" lon="4.27737">
        <ele>427.92</ele>
        <time>2016-09-05T09:21:20Z</time>
      </trkpt>
      <trkpt lat="45.75498" lon="4.27749">
        <ele>428.89</ele>
        <time>2016-09-05T09:21:38Z</time>
      </trkpt>
      <trkpt lat="45.75479" lon="4.27759">
        <ele>429.37</ele>
        <time>2016-09-05T09:21:54Z</time>
      </trkpt>
      <trkpt lat="45.75459" lon="4.27764">
        <ele>429.85</ele>
        <time>2016-09-05T09:22:10Z</time>
      </trkpt>
      <trkpt lat="45.75431" lon="4.27769">
        <ele>429.37</ele>
        <time>2016-09-05T09:22:31Z</time>
      </trkpt>
      <trkpt lat="45.754" lon="4.27772">
        <ele>427.44</ele>
        <time>2016-09-05T09:22:53Z</time>
      </trkpt>
      <trkpt lat="45.7537" lon="4.27773">
        <ele>427.44</ele>
        <time>2016-09-05T09:23:16Z</time>
      </trkpt>
      <trkpt lat="45.75339" lon="4.27775">
        <ele>427.92</ele>
        <time>2016-09-05T09:23:39Z</time>
      </trkpt>
      <trkpt lat="45.75313" lon="4.27777">
        <ele>427.44</ele>
        <time>2016-09-05T09:23:59Z</time>
      </trkpt>
      <trkpt lat="45.75286" lon="4.27783">
        <ele>427.92</ele>
        <time>2016-09-05T09:24:20Z</time>
      </trkpt>
      <trkpt lat="45.7526" lon="4.27785">
        <ele>426.48</ele>
        <time>2016-09-05T09:24:40Z</time>
      </trkpt>
      <trkpt lat="45.75228" lon="4.27791">
        <ele>426.48</ele>
        <time>2016-09-05T09:25:05Z</time>
      </trkpt>
      <trkpt lat="45.7521" lon="4.27795">
        <ele>425.52</ele>
        <time>2016-09-05T09:25:20Z</time>
      </trkpt>
      <trkpt lat="45.75185" lon="4.27799">
        <ele>425.04</ele>
        <time>2016-09-05T09:25:40Z</time>
      </trkpt>
      <trkpt lat="45.75163" lon="4.27805">
        <ele>424.08</ele>
        <time>2016-09-05T09:25:59Z</time>
      </trkpt>
      <trkpt lat="45.75137" lon="4.27816">
        <ele>423.12</ele>
        <time>2016-09-05T09:26:21Z</time>
      </trkpt>
      <trkpt lat="45.75121" lon="4.27825">
        <ele>421.68</ele>
        <time>2016-09-05T09:26:38Z</time>
      </trkpt>
      <trkpt lat="45.75103" lon="4.27835">
        <ele>420.23</ele>
        <time>2016-09-05T09:26:55Z</time>
      </trkpt>
      <trkpt lat="45.75083" lon="4.27844">
        <ele>418.31</ele>
        <time>2016-09-05T09:27:15Z</time>
      </trkpt>
      <trkpt lat="45.75071" lon="4.27853">
        <ele>415.91</ele>
        <time>2016-09-05T09:27:28Z</time>
      </trkpt>
      <trkpt lat="45.75049" lon="4.27868">
        <ele>413.02</ele>
        <time>2016-09-05T09:27:48Z</time>
      </trkpt>
      <trkpt lat="45.75032" lon="4.27881">
        <ele>411.1</ele>
        <time>2016-09-05T09:28:05Z</time>
      </trkpt>
      <trkpt lat="45.7502" lon="4.27895">
        <ele>410.62</ele>
        <time>2016-09-05T09:28:22Z</time>
      </trkpt>
      <trkpt lat="45.75006" lon="4.27911">
        <ele>409.66</ele>
        <time>2016-09-05T09:28:38Z</time>
      </trkpt>
      <trkpt lat="45.74991" lon="4.27926">
        <ele>407.74</ele>
        <time>2016-09-05T09:28:55Z</time>
      </trkpt>
      <trkpt lat="45.74975" lon="4.27941">
        <ele>404.85</ele>
        <time>2016-09-05T09:29:12Z</time>
      </trkpt>
      <trkpt lat="45.74964" lon="4.27954">
        <ele>402.45</ele>
        <time>2016-09-05T09:29:26Z</time>
      </trkpt>
      <trkpt lat="45.74964" lon="4.27977">
        <ele>401.97</ele>
        <time>2016-09-05T09:29:43Z</time>
      </trkpt>
      <trkpt lat="45.74964" lon="4.27983">
        <ele>401.49</ele>
        <time>2016-09-05T09:29:47Z</time>
      </trkpt>
      <trkpt lat="45.74963" lon="4.28006">
        <ele>400.05</ele>
        <time>2016-09-05T09:30:03Z</time>
      </trkpt>
      <trkpt lat="45.7496" lon="4.28011">
        <ele>399.57</ele>
        <time>2016-09-05T09:30:08Z</time>
      </trkpt>
      <trkpt lat="45.74945" lon="4.28032">
        <ele>397.64</ele>
        <time>2016-09-05T09:30:28Z</time>
      </trkpt>
      <trkpt lat="45.74931" lon="4.28046">
        <ele>397.16</ele>
        <time>2016-09-05T09:30:45Z</time>
      </trkpt>
      <trkpt lat="45.74918" lon="4.28061">
        <ele>397.64</ele>
        <time>2016-09-05T09:31:03Z</time>
      </trkpt>
      <trkpt lat="45.74897" lon="4.2807">
        <ele>391.39</ele>
        <time>2016-09-05T09:31:20Z</time>
      </trkpt>
      <trkpt lat="45.7488" lon="4.2808">
        <ele>386.59</ele>
        <time>2016-09-05T09:31:36Z</time>
      </trkpt>
      <trkpt lat="45.74868" lon="4.28084">
        <ele>384.66</ele>
        <time>2016-09-05T09:31:48Z</time>
      </trkpt>
      <trkpt lat="45.74855" lon="4.28087">
        <ele>380.34</ele>
        <time>2016-09-05T09:32:01Z</time>
      </trkpt>
      <trkpt lat="45.74849" lon="4.2809">
        <ele>378.9</ele>
        <time>2016-09-05T09:32:07Z</time>
      </trkpt>
      <trkpt lat="45.74834" lon="4.28094">
        <ele>376.97</ele>
        <time>2016-09-05T09:32:22Z</time>
      </trkpt>
      <trkpt lat="45.74832" lon="4.28095">
        <ele>376.01</ele>
        <time>2016-09-05T09:32:25Z</time>
      </trkpt>
      <trkpt lat="45.74827" lon="4.28105">
        <ele>374.09</ele>
        <time>2016-09-05T09:32:33Z</time>
      </trkpt>
      <trkpt lat="45.74826" lon="4.28107">
        <ele>373.61</ele>
        <time>2016-09-05T09:32:35Z</time>
      </trkpt>
      <trkpt lat="45.74814" lon="4.28136">
        <ele>371.21</ele>
        <time>2016-09-05T09:32:57Z</time>
      </trkpt>
      <trkpt lat="45.74812" lon="4.28142">
        <ele>370.24</ele>
        <time>2016-09-05T09:33:01Z</time>
      </trkpt>
      <trkpt lat="45.74793" lon="4.28138">
        <ele>366.4</ele>
        <time>2016-09-05T09:33:16Z</time>
      </trkpt>
      <trkpt lat="45.74779" lon="4.28127">
        <ele>364.96</ele>
        <time>2016-09-05T09:33:30Z</time>
      </trkpt>
      <trkpt lat="45.74775" lon="4.28124">
        <ele>365.44</ele>
        <time>2016-09-05T09:33:35Z</time>
      </trkpt>
      <trkpt lat="45.74758" lon="4.28111">
        <ele>366.4</ele>
        <time>2016-09-05T09:33:52Z</time>
      </trkpt>
      <trkpt lat="45.74746" lon="4.28103">
        <ele>367.36</ele>
        <time>2016-09-05T09:34:07Z</time>
      </trkpt>
      <trkpt lat="45.74736" lon="4.28092">
        <ele>364.48</ele>
        <time>2016-09-05T09:34:22Z</time>
      </trkpt>
      <trkpt lat="45.7472" lon="4.28068">
        <ele>364.96</ele>
        <time>2016-09-05T09:34:43Z</time>
      </trkpt>
      <trkpt lat="45.74709" lon="4.28044">
        <ele>364</ele>
        <time>2016-09-05T09:35:03Z</time>
      </trkpt>
      <trkpt lat="45.74692" lon="4.28024">
        <ele>363.52</ele>
        <time>2016-09-05T09:35:22Z</time>
      </trkpt>
      <trkpt lat="45.74683" lon="4.2801">
        <ele>362.07</ele>
        <time>2016-09-05T09:35:39Z</time>
      </trkpt>
      <trkpt lat="45.74681" lon="4.28006">
        <ele>360.63</ele>
        <time>2016-09-05T09:36:01Z</time>
      </trkpt>
      <trkpt lat="45.7468" lon="4.28003">
        <ele>359.67</ele>
        <time>2016-09-05T09:36:22Z</time>
      </trkpt>
      <trkpt lat="45.74679" lon="4.28">
        <ele>359.19</ele>
        <time>2016-09-05T09:36:46Z</time>
      </trkpt>
      <trkpt lat="45.7468" lon="4.27998">
        <ele>358.23</ele>
        <time>2016-09-05T09:37:04Z</time>
      </trkpt>
      <trkpt lat="45.7468" lon="4.27997">
        <ele>358.23</ele>
        <time>2016-09-05T09:37:30Z</time>
      </trkpt>
      <trkpt lat="45.7468" lon="4.27997">
        <ele>357.75</ele>
        <time>2016-09-05T09:37:55Z</time>
      </trkpt>
      <trkpt lat="45.7468" lon="4.27997">
        <ele>357.27</ele>
        <time>2016-09-05T09:38:22Z</time>
      </trkpt>
      <trkpt lat="45.7468" lon="4.27995">
        <ele>356.79</ele>
        <time>2016-09-05T09:38:52Z</time>
      </trkpt>
      <trkpt lat="45.7468" lon="4.27993">
        <ele>356.31</ele>
        <time>2016-09-05T09:39:20Z</time>
      </trkpt>
      <trkpt lat="45.7468" lon="4.27993">
        <ele>356.31</ele>
        <time>2016-09-05T09:39:49Z</time>
      </trkpt>
      <trkpt lat="45.74676" lon="4.28008">
        <ele>359.67</ele>
        <time>2016-09-05T09:40:06Z</time>
      </trkpt>
      <trkpt lat="45.74677" lon="4.28016">
        <ele>362.07</ele>
        <time>2016-09-05T09:40:21Z</time>
      </trkpt>
      <trkpt lat="45.74682" lon="4.28039">
        <ele>364</ele>
        <time>2016-09-05T09:40:39Z</time>
      </trkpt>
      <trkpt lat="45.7469" lon="4.28052">
        <ele>362.55</ele>
        <time>2016-09-05T09:40:46Z</time>
      </trkpt>
      <trkpt lat="45.74696" lon="4.28066">
        <ele>365.44</ele>
        <time>2016-09-05T09:41:02Z</time>
      </trkpt>
      <trkpt lat="45.74707" lon="4.2808">
        <ele>365.92</ele>
        <time>2016-09-05T09:41:19Z</time>
      </trkpt>
      <trkpt lat="45.74725" lon="4.28098">
        <ele>369.76</ele>
        <time>2016-09-05T09:41:36Z</time>
      </trkpt>
      <trkpt lat="45.74735" lon="4.28119">
        <ele>373.61</ele>
        <time>2016-09-05T09:41:53Z</time>
      </trkpt>
      <trkpt lat="45.74741" lon="4.28149">
        <ele>375.53</ele>
        <time>2016-09-05T09:42:10Z</time>
      </trkpt>
      <trkpt lat="45.74743" lon="4.28172">
        <ele>375.53</ele>
        <time>2016-09-05T09:42:24Z</time>
      </trkpt>
      <trkpt lat="45.74747" lon="4.28177">
        <ele>376.49</ele>
        <time>2016-09-05T09:42:30Z</time>
      </trkpt>
      <trkpt lat="45.74757" lon="4.2819">
        <ele>377.45</ele>
        <time>2016-09-05T09:42:45Z</time>
      </trkpt>
      <trkpt lat="45.74775" lon="4.28209">
        <ele>376.01</ele>
        <time>2016-09-05T09:43:03Z</time>
      </trkpt>
      <trkpt lat="45.7479" lon="4.2822">
        <ele>376.01</ele>
        <time>2016-09-05T09:43:19Z</time>
      </trkpt>
      <trkpt lat="45.74802" lon="4.28237">
        <ele>376.97</ele>
        <time>2016-09-05T09:43:35Z</time>
      </trkpt>
      <trkpt lat="45.74807" lon="4.28249">
        <ele>377.45</ele>
        <time>2016-09-05T09:43:50Z</time>
      </trkpt>
      <trkpt lat="45.74808" lon="4.28251">
        <ele>377.45</ele>
        <time>2016-09-05T09:44:10Z</time>
      </trkpt>
      <trkpt lat="45.74811" lon="4.28261">
        <ele>372.17</ele>
        <time>2016-09-05T09:44:34Z</time>
      </trkpt>
      <trkpt lat="45.74815" lon="4.28273">
        <ele>364</ele>
        <time>2016-09-05T09:44:57Z</time>
      </trkpt>
      <trkpt lat="45.74816" lon="4.28275">
        <ele>362.55</ele>
        <time>2016-09-05T09:45:13Z</time>
      </trkpt>
      <trkpt lat="45.74816" lon="4.28277">
        <ele>362.55</ele>
        <time>2016-09-05T09:45:14Z</time>
      </trkpt>
      <trkpt lat="45.74812" lon="4.28292">
        <ele>363.04</ele>
        <time>2016-09-05T09:45:29Z</time>
      </trkpt>
      <trkpt lat="45.74802" lon="4.28307">
        <ele>364.96</ele>
        <time>2016-09-05T09:45:44Z</time>
      </trkpt>
      <trkpt lat="45.74801" lon="4.28316">
        <ele>367.36</ele>
        <time>2016-09-05T09:45:57Z</time>
      </trkpt>
      <trkpt lat="45.74802" lon="4.28319">
        <ele>368.32</ele>
        <time>2016-09-05T09:46:01Z</time>
      </trkpt>
      <trkpt lat="45.74804" lon="4.28339">
        <ele>372.17</ele>
        <time>2016-09-05T09:46:18Z</time>
      </trkpt>
      <trkpt lat="45.748" lon="4.28354">
        <ele>372.17</ele>
        <time>2016-09-05T09:46:34Z</time>
      </trkpt>
      <trkpt lat="45.74801" lon="4.2837">
        <ele>376.49</ele>
        <time>2016-09-05T09:46:53Z</time>
      </trkpt>
      <trkpt lat="45.74811" lon="4.28378">
        <ele>382.74</ele>
        <time>2016-09-05T09:47:11Z</time>
      </trkpt>
      <trkpt lat="45.74819" lon="4.28382">
        <ele>384.66</ele>
        <time>2016-09-05T09:47:20Z</time>
      </trkpt>
      <trkpt lat="45.74828" lon="4.28388">
        <ele>384.66</ele>
        <time>2016-09-05T09:47:33Z</time>
      </trkpt>
      <trkpt lat="45.74832" lon="4.28394">
        <ele>385.15</ele>
        <time>2016-09-05T09:47:41Z</time>
      </trkpt>
      <trkpt lat="45.74849" lon="4.28407">
        <ele>386.11</ele>
        <time>2016-09-05T09:47:56Z</time>
      </trkpt>
      <trkpt lat="45.74865" lon="4.28416">
        <ele>386.11</ele>
        <time>2016-09-05T09:48:13Z</time>
      </trkpt>
      <trkpt lat="45.74886" lon="4.28428">
        <ele>382.74</ele>
        <time>2016-09-05T09:48:30Z</time>
      </trkpt>
      <trkpt lat="45.74898" lon="4.2843">
        <ele>382.74</ele>
        <time>2016-09-05T09:48:39Z</time>
      </trkpt>
      <trkpt lat="45.7491" lon="4.28438">
        <ele>380.34</ele>
        <time>2016-09-05T09:48:53Z</time>
      </trkpt>
      <trkpt lat="45.74915" lon="4.28455">
        <ele>373.61</ele>
        <time>2016-09-05T09:49:13Z</time>
      </trkpt>
      <trkpt lat="45.74918" lon="4.28456">
        <ele>374.09</ele>
        <time>2016-09-05T09:49:33Z</time>
      </trkpt>
      <trkpt lat="45.74931" lon="4.28459">
        <ele>377.45</ele>
        <time>2016-09-05T09:49:45Z</time>
      </trkpt>
      <trkpt lat="45.74948" lon="4.28464">
        <ele>382.26</ele>
        <time>2016-09-05T09:50:00Z</time>
      </trkpt>
      <trkpt lat="45.74965" lon="4.28476">
        <ele>384.18</ele>
        <time>2016-09-05T09:50:15Z</time>
      </trkpt>
      <trkpt lat="45.74985" lon="4.2849">
        <ele>384.66</ele>
        <time>2016-09-05T09:50:32Z</time>
      </trkpt>
      <trkpt lat="45.75002" lon="4.28503">
        <ele>385.15</ele>
        <time>2016-09-05T09:50:49Z</time>
      </trkpt>
      <trkpt lat="45.75016" lon="4.28515">
        <ele>388.99</ele>
        <time>2016-09-05T09:51:04Z</time>
      </trkpt>
      <trkpt lat="45.75034" lon="4.28532">
        <ele>389.95</ele>
        <time>2016-09-05T09:51:20Z</time>
      </trkpt>
      <trkpt lat="45.75038" lon="4.28535">
        <ele>389.47</ele>
        <time>2016-09-05T09:51:23Z</time>
      </trkpt>
      <trkpt lat="45.75057" lon="4.28536">
        <ele>388.03</ele>
        <time>2016-09-05T09:51:41Z</time>
      </trkpt>
      <trkpt lat="45.75071" lon="4.28533">
        <ele>387.55</ele>
        <time>2016-09-05T09:51:54Z</time>
      </trkpt>
      <trkpt lat="45.75082" lon="4.28526">
        <ele>385.15</ele>
        <time>2016-09-05T09:52:07Z</time>
      </trkpt>
      <trkpt lat="45.75089" lon="4.28523">
        <ele>383.7</ele>
        <time>2016-09-05T09:52:12Z</time>
      </trkpt>
      <trkpt lat="45.75109" lon="4.28511">
        <ele>382.74</ele>
        <time>2016-09-05T09:52:30Z</time>
      </trkpt>
      <trkpt lat="45.75114" lon="4.28508">
        <ele>381.78</ele>
        <time>2016-09-05T09:52:34Z</time>
      </trkpt>
      <trkpt lat="45.75133" lon="4.28499">
        <ele>380.82</ele>
        <time>2016-09-05T09:52:51Z</time>
      </trkpt>
      <trkpt lat="45.75154" lon="4.28486">
        <ele>381.3</ele>
        <time>2016-09-05T09:53:08Z</time>
      </trkpt>
      <trkpt lat="45.75177" lon="4.28475">
        <ele>383.22</ele>
        <time>2016-09-05T09:53:27Z</time>
      </trkpt>
      <trkpt lat="45.75194" lon="4.28466">
        <ele>384.66</ele>
        <time>2016-09-05T09:53:42Z</time>
      </trkpt>
      <trkpt lat="45.75215" lon="4.28461">
        <ele>384.66</ele>
        <time>2016-09-05T09:53:58Z</time>
      </trkpt>
      <trkpt lat="45.75235" lon="4.28462">
        <ele>383.22</ele>
        <time>2016-09-05T09:54:11Z</time>
      </trkpt>
      <trkpt lat="45.75252" lon="4.28464">
        <ele>382.74</ele>
        <time>2016-09-05T09:54:26Z</time>
      </trkpt>
      <trkpt lat="45.75272" lon="4.28469">
        <ele>381.78</ele>
        <time>2016-09-05T09:54:43Z</time>
      </trkpt>
      <trkpt lat="45.75289" lon="4.2847">
        <ele>379.86</ele>
        <time>2016-09-05T09:55:00Z</time>
      </trkpt>
      <trkpt lat="45.75314" lon="4.28473">
        <ele>379.38</ele>
        <time>2016-09-05T09:55:17Z</time>
      </trkpt>
      <trkpt lat="45.75335" lon="4.28482">
        <ele>378.42</ele>
        <time>2016-09-05T09:55:35Z</time>
      </trkpt>
      <trkpt lat="45.75359" lon="4.28488">
        <ele>380.34</ele>
        <time>2016-09-05T09:55:53Z</time>
      </trkpt>
      <trkpt lat="45.75375" lon="4.28491">
        <ele>381.3</ele>
        <time>2016-09-05T09:56:06Z</time>
      </trkpt>
      <trkpt lat="45.75398" lon="4.28496">
        <ele>382.74</ele>
        <time>2016-09-05T09:56:23Z</time>
      </trkpt>
      <trkpt lat="45.75419" lon="4.28502">
        <ele>385.63</ele>
        <time>2016-09-05T09:56:39Z</time>
      </trkpt>
      <trkpt lat="45.7544" lon="4.28513">
        <ele>384.66</ele>
        <time>2016-09-05T09:56:55Z</time>
      </trkpt>
      <trkpt lat="45.75465" lon="4.28518">
        <ele>387.07</ele>
        <time>2016-09-05T09:57:12Z</time>
      </trkpt>
      <trkpt lat="45.75481" lon="4.28518">
        <ele>390.43</ele>
        <time>2016-09-05T09:57:28Z</time>
      </trkpt>
      <trkpt lat="45.75499" lon="4.28517">
        <ele>391.87</ele>
        <time>2016-09-05T09:57:44Z</time>
      </trkpt>
      <trkpt lat="45.75505" lon="4.28518">
        <ele>392.84</ele>
        <time>2016-09-05T09:57:47Z</time>
      </trkpt>
      <trkpt lat="45.75526" lon="4.28521">
        <ele>397.16</ele>
        <time>2016-09-05T09:58:03Z</time>
      </trkpt>
      <trkpt lat="45.75546" lon="4.28531">
        <ele>397.16</ele>
        <time>2016-09-05T09:58:19Z</time>
      </trkpt>
      <trkpt lat="45.75565" lon="4.28542">
        <ele>395.72</ele>
        <time>2016-09-05T09:58:37Z</time>
      </trkpt>
      <trkpt lat="45.75592" lon="4.28548">
        <ele>399.08</ele>
        <time>2016-09-05T09:58:55Z</time>
      </trkpt>
      <trkpt lat="45.75608" lon="4.28554">
        <ele>396.68</ele>
        <time>2016-09-05T09:59:11Z</time>
      </trkpt>
      <trkpt lat="45.75627" lon="4.28558">
        <ele>393.8</ele>
        <time>2016-09-05T09:59:28Z</time>
      </trkpt>
      <trkpt lat="45.75644" lon="4.28563">
        <ele>391.39</ele>
        <time>2016-09-05T09:59:39Z</time>
      </trkpt>
      <trkpt lat="45.7567" lon="4.28571">
        <ele>391.39</ele>
        <time>2016-09-05T09:59:56Z</time>
      </trkpt>
      <trkpt lat="45.75689" lon="4.28577">
        <ele>390.43</ele>
        <time>2016-09-05T10:00:13Z</time>
      </trkpt>
      <trkpt lat="45.75697" lon="4.28579">
        <ele>391.87</ele>
        <time>2016-09-05T10:00:19Z</time>
      </trkpt>
      <trkpt lat="45.75723" lon="4.28578">
        <ele>401.01</ele>
        <time>2016-09-05T10:00:36Z</time>
      </trkpt>
      <trkpt lat="45.75741" lon="4.28578">
        <ele>402.93</ele>
        <time>2016-09-05T10:00:51Z</time>
      </trkpt>
      <trkpt lat="45.75761" lon="4.28583">
        <ele>400.53</ele>
        <time>2016-09-05T10:01:07Z</time>
      </trkpt>
      <trkpt lat="45.75773" lon="4.28593">
        <ele>398.6</ele>
        <time>2016-09-05T10:01:21Z</time>
      </trkpt>
      <trkpt lat="45.75789" lon="4.28618">
        <ele>397.64</ele>
        <time>2016-09-05T10:01:35Z</time>
      </trkpt>
      <trkpt lat="45.75805" lon="4.28654">
        <ele>400.05</ele>
        <time>2016-09-05T10:01:49Z</time>
      </trkpt>
      <trkpt lat="45.75807" lon="4.28685">
        <ele>403.89</ele>
        <time>2016-09-05T10:02:05Z</time>
      </trkpt>
      <trkpt lat="45.7581" lon="4.28721">
        <ele>406.29</ele>
        <time>2016-09-05T10:02:20Z</time>
      </trkpt>
      <trkpt lat="45.75812" lon="4.28739">
        <ele>411.1</ele>
        <time>2016-09-05T10:02:36Z</time>
      </trkpt>
      <trkpt lat="45.75811" lon="4.28743">
        <ele>413.02</ele>
        <time>2016-09-05T10:02:50Z</time>
      </trkpt>
      <trkpt lat="45.75807" lon="4.28748">
        <ele>411.1</ele>
        <time>2016-09-05T10:03:08Z</time>
      </trkpt>
      <trkpt lat="45.75804" lon="4.2875">
        <ele>411.1</ele>
        <time>2016-09-05T10:03:30Z</time>
      </trkpt>
      <trkpt lat="45.75805" lon="4.28757">
        <ele>411.58</ele>
        <time>2016-09-05T10:03:43Z</time>
      </trkpt>
      <trkpt lat="45.75819" lon="4.28778">
        <ele>408.7</ele>
        <time>2016-09-05T10:04:00Z</time>
      </trkpt>
      <trkpt lat="45.75847" lon="4.28807">
        <ele>404.37</ele>
        <time>2016-09-05T10:04:16Z</time>
      </trkpt>
      <trkpt lat="45.75857" lon="4.28822">
        <ele>405.81</ele>
        <time>2016-09-05T10:04:26Z</time>
      </trkpt>
      <trkpt lat="45.75867" lon="4.28833">
        <ele>407.26</ele>
        <time>2016-09-05T10:04:36Z</time>
      </trkpt>
      <trkpt lat="45.75881" lon="4.28848">
        <ele>409.66</ele>
        <time>2016-09-05T10:04:52Z</time>
      </trkpt>
      <trkpt lat="45.75885" lon="4.28854">
        <ele>409.66</ele>
        <time>2016-09-05T10:04:56Z</time>
      </trkpt>
      <trkpt lat="45.75906" lon="4.28881">
        <ele>408.22</ele>
        <time>2016-09-05T10:05:15Z</time>
      </trkpt>
      <trkpt lat="45.75922" lon="4.28899">
        <ele>409.18</ele>
        <time>2016-09-05T10:05:31Z</time>
      </trkpt>
      <trkpt lat="45.75935" lon="4.28914">
        <ele>411.1</ele>
        <time>2016-09-05T10:05:44Z</time>
      </trkpt>
      <trkpt lat="45.75953" lon="4.28936">
        <ele>407.74</ele>
        <time>2016-09-05T10:06:01Z</time>
      </trkpt>
      <trkpt lat="45.75962" lon="4.28939">
        <ele>406.29</ele>
        <time>2016-09-05T10:06:07Z</time>
      </trkpt>
      <trkpt lat="45.7598" lon="4.28941">
        <ele>407.74</ele>
        <time>2016-09-05T10:06:24Z</time>
      </trkpt>
      <trkpt lat="45.76001" lon="4.28943">
        <ele>407.26</ele>
        <time>2016-09-05T10:06:41Z</time>
      </trkpt>
      <trkpt lat="45.76026" lon="4.28945">
        <ele>405.81</ele>
        <time>2016-09-05T10:06:59Z</time>
      </trkpt>
      <trkpt lat="45.76046" lon="4.28944">
        <ele>405.81</ele>
        <time>2016-09-05T10:07:13Z</time>
      </trkpt>
      <trkpt lat="45.76067" lon="4.28946">
        <ele>403.41</ele>
        <time>2016-09-05T10:07:28Z</time>
      </trkpt>
      <trkpt lat="45.76092" lon="4.28944">
        <ele>402.45</ele>
        <time>2016-09-05T10:07:45Z</time>
      </trkpt>
      <trkpt lat="45.76115" lon="4.28943">
        <ele>402.93</ele>
        <time>2016-09-05T10:08:01Z</time>
      </trkpt>
      <trkpt lat="45.76137" lon="4.28941">
        <ele>401.97</ele>
        <time>2016-09-05T10:08:18Z</time>
      </trkpt>
      <trkpt lat="45.76162" lon="4.2894">
        <ele>401.01</ele>
        <time>2016-09-05T10:08:35Z</time>
      </trkpt>
      <trkpt lat="45.76186" lon="4.28946">
        <ele>399.57</ele>
        <time>2016-09-05T10:08:52Z</time>
      </trkpt>
      <trkpt lat="45.76208" lon="4.28954">
        <ele>400.05</ele>
        <time>2016-09-05T10:09:09Z</time>
      </trkpt>
      <trkpt lat="45.7623" lon="4.28965">
        <ele>401.49</ele>
        <time>2016-09-05T10:09:27Z</time>
      </trkpt>
      <trkpt lat="45.76249" lon="4.2898">
        <ele>402.45</ele>
        <time>2016-09-05T10:09:43Z</time>
      </trkpt>
      <trkpt lat="45.76264" lon="4.28997">
        <ele>404.37</ele>
        <time>2016-09-05T10:10:00Z</time>
      </trkpt>
      <trkpt lat="45.76267" lon="4.29002">
        <ele>406.29</ele>
        <time>2016-09-05T10:10:06Z</time>
      </trkpt>
      <trkpt lat="45.76283" lon="4.29026">
        <ele>409.66</ele>
        <time>2016-09-05T10:10:22Z</time>
      </trkpt>
      <trkpt lat="45.76291" lon="4.29052">
        <ele>413.02</ele>
        <time>2016-09-05T10:10:40Z</time>
      </trkpt>
      <trkpt lat="45.76297" lon="4.29064">
        <ele>416.39</ele>
        <time>2016-09-05T10:10:49Z</time>
      </trkpt>
      <trkpt lat="45.76299" lon="4.2907">
        <ele>418.31</ele>
        <time>2016-09-05T10:10:53Z</time>
      </trkpt>
      <trkpt lat="45.76308" lon="4.29095">
        <ele>423.12</ele>
        <time>2016-09-05T10:11:09Z</time>
      </trkpt>
      <trkpt lat="45.76315" lon="4.29118">
        <ele>425.04</ele>
        <time>2016-09-05T10:11:23Z</time>
      </trkpt>
      <trkpt lat="45.76306" lon="4.29134">
        <ele>420.71</ele>
        <time>2016-09-05T10:11:40Z</time>
      </trkpt>
      <trkpt lat="45.76293" lon="4.29138">
        <ele>421.68</ele>
        <time>2016-09-05T10:11:58Z</time>
      </trkpt>
      <trkpt lat="45.76288" lon="4.29133">
        <ele>424.08</ele>
        <time>2016-09-05T10:12:12Z</time>
      </trkpt>
      <trkpt lat="45.76274" lon="4.29115">
        <ele>426</ele>
        <time>2016-09-05T10:12:28Z</time>
      </trkpt>
      <trkpt lat="45.76262" lon="4.29113">
        <ele>421.68</ele>
        <time>2016-09-05T10:12:44Z</time>
      </trkpt>
      <trkpt lat="45.76253" lon="4.29117">
        <ele>423.12</ele>
        <time>2016-09-05T10:12:59Z</time>
      </trkpt>
      <trkpt lat="45.76244" lon="4.29118">
        <ele>422.64</ele>
        <time>2016-09-05T10:13:14Z</time>
      </trkpt>
      <trkpt lat="45.76244" lon="4.29118">
        <ele>421.68</ele>
        <time>2016-09-05T10:13:34Z</time>
      </trkpt>
      <trkpt lat="45.76244" lon="4.29125">
        <ele>419.27</ele>
        <time>2016-09-05T10:13:52Z</time>
      </trkpt>
      <trkpt lat="45.76246" lon="4.29126">
        <ele>418.79</ele>
        <time>2016-09-05T10:14:04Z</time>
      </trkpt>
      <trkpt lat="45.76245" lon="4.2913">
        <ele>418.31</ele>
        <time>2016-09-05T10:14:14Z</time>
      </trkpt>
      <trkpt lat="45.76245" lon="4.2913">
        <ele>419.75</ele>
        <time>2016-09-05T10:14:41Z</time>
      </trkpt>
      <trkpt lat="45.76246" lon="4.2913">
        <ele>420.71</ele>
        <time>2016-09-05T10:15:08Z</time>
      </trkpt>
      <trkpt lat="45.76245" lon="4.2913">
        <ele>419.75</ele>
        <time>2016-09-05T10:15:24Z</time>
      </trkpt>
      <trkpt lat="45.76245" lon="4.29129">
        <ele>418.31</ele>
        <time>2016-09-05T10:15:45Z</time>
      </trkpt>
      <trkpt lat="45.76245" lon="4.29129">
        <ele>417.83</ele>
        <time>2016-09-05T10:16:11Z</time>
      </trkpt>
      <trkpt lat="45.76246" lon="4.29129">
        <ele>417.35</ele>
        <time>2016-09-05T10:16:27Z</time>
      </trkpt>
      <trkpt lat="45.76246" lon="4.29129">
        <ele>417.35</ele>
        <time>2016-09-05T10:16:49Z</time>
      </trkpt>
      <trkpt lat="45.76246" lon="4.29128">
        <ele>417.83</ele>
        <time>2016-09-05T10:17:07Z</time>
      </trkpt>
      <trkpt lat="45.76247" lon="4.29128">
        <ele>416.87</ele>
        <time>2016-09-05T10:17:29Z</time>
      </trkpt>
      <trkpt lat="45.76247" lon="4.29129">
        <ele>415.43</ele>
        <time>2016-09-05T10:17:55Z</time>
      </trkpt>
      <trkpt lat="45.76246" lon="4.29129">
        <ele>415.43</ele>
        <time>2016-09-05T10:18:21Z</time>
      </trkpt>
      <trkpt lat="45.76245" lon="4.29129">
        <ele>414.95</ele>
        <time>2016-09-05T10:18:48Z</time>
      </trkpt>
      <trkpt lat="45.76245" lon="4.2913">
        <ele>413.98</ele>
        <time>2016-09-05T10:19:18Z</time>
      </trkpt>
      <trkpt lat="45.76245" lon="4.29129">
        <ele>413.98</ele>
        <time>2016-09-05T10:19:45Z</time>
      </trkpt>
      <trkpt lat="45.76245" lon="4.29128">
        <ele>414.47</ele>
        <time>2016-09-05T10:20:12Z</time>
      </trkpt>
      <trkpt lat="45.76246" lon="4.29129">
        <ele>414.47</ele>
        <time>2016-09-05T10:20:36Z</time>
      </trkpt>
      <trkpt lat="45.76246" lon="4.29131">
        <ele>413.5</ele>
        <time>2016-09-05T10:21:02Z</time>
      </trkpt>
      <trkpt lat="45.76246" lon="4.29131">
        <ele>413.98</ele>
        <time>2016-09-05T10:21:23Z</time>
      </trkpt>
      <trkpt lat="45.76246" lon="4.29132">
        <ele>413.5</ele>
        <time>2016-09-05T10:21:46Z</time>
      </trkpt>
      <trkpt lat="45.76245" lon="4.29132">
        <ele>413.02</ele>
        <time>2016-09-05T10:22:15Z</time>
      </trkpt>
      <trkpt lat="45.76245" lon="4.29133">
        <ele>413.02</ele>
        <time>2016-09-05T10:22:42Z</time>
      </trkpt>
      <trkpt lat="45.76245" lon="4.29133">
        <ele>413.5</ele>
        <time>2016-09-05T10:23:13Z</time>
      </trkpt>
      <trkpt lat="45.76245" lon="4.29133">
        <ele>413.5</ele>
        <time>2016-09-05T10:23:41Z</time>
      </trkpt>
      <trkpt lat="45.76245" lon="4.2913">
        <ele>412.06</ele>
        <time>2016-09-05T10:24:11Z</time>
      </trkpt>
      <trkpt lat="45.76246" lon="4.29129">
        <ele>411.58</ele>
        <time>2016-09-05T10:24:42Z</time>
      </trkpt>
      <trkpt lat="45.76247" lon="4.2913">
        <ele>411.58</ele>
        <time>2016-09-05T10:25:15Z</time>
      </trkpt>
      <trkpt lat="45.76247" lon="4.2913">
        <ele>411.58</ele>
        <time>2016-09-05T10:25:52Z</time>
      </trkpt>
      <trkpt lat="45.76248" lon="4.29131">
        <ele>412.54</ele>
        <time>2016-09-05T10:26:24Z</time>
      </trkpt>
      <trkpt lat="45.76248" lon="4.29131">
        <ele>413.5</ele>
        <time>2016-09-05T10:26:54Z</time>
      </trkpt>
      <trkpt lat="45.76248" lon="4.29132">
        <ele>413.98</ele>
        <time>2016-09-05T10:27:25Z</time>
      </trkpt>
      <trkpt lat="45.76248" lon="4.29132">
        <ele>413.98</ele>
        <time>2016-09-05T10:27:52Z</time>
      </trkpt>
      <trkpt lat="45.76247" lon="4.2913">
        <ele>413.98</ele>
        <time>2016-09-05T10:28:16Z</time>
      </trkpt>
      <trkpt lat="45.76247" lon="4.2913">
        <ele>414.95</ele>
        <time>2016-09-05T10:28:45Z</time>
      </trkpt>
      <trkpt lat="45.76248" lon="4.29129">
        <ele>414.47</ele>
        <time>2016-09-05T10:29:13Z</time>
      </trkpt>
      <trkpt lat="45.76247" lon="4.2913">
        <ele>414.47</ele>
        <time>2016-09-05T10:29:39Z</time>
      </trkpt>
      <trkpt lat="45.76245" lon="4.29131">
        <ele>413.98</ele>
        <time>2016-09-05T10:30:04Z</time>
      </trkpt>
      <trkpt lat="45.76244" lon="4.29132">
        <ele>413.5</ele>
        <time>2016-09-05T10:30:34Z</time>
      </trkpt>
      <trkpt lat="45.76244" lon="4.29131">
        <ele>413.02</ele>
        <time>2016-09-05T10:31:05Z</time>
      </trkpt>
      <trkpt lat="45.76244" lon="4.2913">
        <ele>412.54</ele>
        <time>2016-09-05T10:31:32Z</time>
      </trkpt>
      <trkpt lat="45.76244" lon="4.2913">
        <ele>413.02</ele>
        <time>2016-09-05T10:32:00Z</time>
      </trkpt>
      <trkpt lat="45.76245" lon="4.29131">
        <ele>413.5</ele>
        <time>2016-09-05T10:32:28Z</time>
      </trkpt>
      <trkpt lat="45.76245" lon="4.29131">
        <ele>413.98</ele>
        <time>2016-09-05T10:32:50Z</time>
      </trkpt>
      <trkpt lat="45.76245" lon="4.29131">
        <ele>413.98</ele>
        <time>2016-09-05T10:33:16Z</time>
      </trkpt>
      <trkpt lat="45.76245" lon="4.29131">
        <ele>413.98</ele>
        <time>2016-09-05T10:33:41Z</time>
      </trkpt>
      <trkpt lat="45.76246" lon="4.29132">
        <ele>413.98</ele>
        <time>2016-09-05T10:34:10Z</time>
      </trkpt>
      <trkpt lat="45.76246" lon="4.29133">
        <ele>414.47</ele>
        <time>2016-09-05T10:34:41Z</time>
      </trkpt>
      <trkpt lat="45.76246" lon="4.29133">
        <ele>415.43</ele>
        <time>2016-09-05T10:35:13Z</time>
      </trkpt>
      <trkpt lat="45.76246" lon="4.29133">
        <ele>415.43</ele>
        <time>2016-09-05T10:35:47Z</time>
      </trkpt>
      <trkpt lat="45.76247" lon="4.29131">
        <ele>415.43</ele>
        <time>2016-09-05T10:36:18Z</time>
      </trkpt>
      <trkpt lat="45.76247" lon="4.2913">
        <ele>415.43</ele>
        <time>2016-09-05T10:36:55Z</time>
      </trkpt>
      <trkpt lat="45.76247" lon="4.2913">
        <ele>414.47</ele>
        <time>2016-09-05T10:37:27Z</time>
      </trkpt>
      <trkpt lat="45.76247" lon="4.2913">
        <ele>413.98</ele>
        <time>2016-09-05T10:38:06Z</time>
      </trkpt>
      <trkpt lat="45.76246" lon="4.2913">
        <ele>413.5</ele>
        <time>2016-09-05T10:38:34Z</time>
      </trkpt>
      <trkpt lat="45.76246" lon="4.2913">
        <ele>413.02</ele>
        <time>2016-09-05T10:39:05Z</time>
      </trkpt>
      <trkpt lat="45.76247" lon="4.29132">
        <ele>412.54</ele>
        <time>2016-09-05T10:39:45Z</time>
      </trkpt>
      <trkpt lat="45.76246" lon="4.29131">
        <ele>413.02</ele>
        <time>2016-09-05T10:40:22Z</time>
      </trkpt>
      <trkpt lat="45.76246" lon="4.29131">
        <ele>413.5</ele>
        <time>2016-09-05T10:41:02Z</time>
      </trkpt>
      <trkpt lat="45.76247" lon="4.2913">
        <ele>413.98</ele>
        <time>2016-09-05T10:41:43Z</time>
      </trkpt>
      <trkpt lat="45.76247" lon="4.2913">
        <ele>413.98</ele>
        <time>2016-09-05T10:42:17Z</time>
      </trkpt>
      <trkpt lat="45.76247" lon="4.29129">
        <ele>413.5</ele>
        <time>2016-09-05T10:43:00Z</time>
      </trkpt>
      <trkpt lat="45.76247" lon="4.29129">
        <ele>413.5</ele>
        <time>2016-09-05T10:43:31Z</time>
      </trkpt>
      <trkpt lat="45.76246" lon="4.29131">
        <ele>413.98</ele>
        <time>2016-09-05T10:44:06Z</time>
      </trkpt>
      <trkpt lat="45.76246" lon="4.29132">
        <ele>413.5</ele>
        <time>2016-09-05T10:44:35Z</time>
      </trkpt>
      <trkpt lat="45.76245" lon="4.29131">
        <ele>412.54</ele>
        <time>2016-09-05T10:45:12Z</time>
      </trkpt>
      <trkpt lat="45.76245" lon="4.29132">
        <ele>413.02</ele>
        <time>2016-09-05T10:45:47Z</time>
      </trkpt>
      <trkpt lat="45.76245" lon="4.29133">
        <ele>413.5</ele>
        <time>2016-09-05T10:46:18Z</time>
      </trkpt>
      <trkpt lat="45.76246" lon="4.29134">
        <ele>413.02</ele>
        <time>2016-09-05T10:46:51Z</time>
      </trkpt>
      <trkpt lat="45.76246" lon="4.29132">
        <ele>413.98</ele>
        <time>2016-09-05T10:47:14Z</time>
      </trkpt>
      <trkpt lat="45.76246" lon="4.29132">
        <ele>413.5</ele>
        <time>2016-09-05T10:47:41Z</time>
      </trkpt>
      <trkpt lat="45.76246" lon="4.29133">
        <ele>413.5</ele>
        <time>2016-09-05T10:48:15Z</time>
      </trkpt>
      <trkpt lat="45.76246" lon="4.29134">
        <ele>412.06</ele>
        <time>2016-09-05T10:48:58Z</time>
      </trkpt>
      <trkpt lat="45.76247" lon="4.29133">
        <ele>412.06</ele>
        <time>2016-09-05T10:49:35Z</time>
      </trkpt>
      <trkpt lat="45.76246" lon="4.29133">
        <ele>414.47</ele>
        <time>2016-09-05T10:50:04Z</time>
      </trkpt>
      <trkpt lat="45.76246" lon="4.29133">
        <ele>416.39</ele>
        <time>2016-09-05T10:50:39Z</time>
      </trkpt>
      <trkpt lat="45.76246" lon="4.29133">
        <ele>417.83</ele>
        <time>2016-09-05T10:51:12Z</time>
      </trkpt>
      <trkpt lat="45.76247" lon="4.29132">
        <ele>417.83</ele>
        <time>2016-09-05T10:51:45Z</time>
      </trkpt>
      <trkpt lat="45.76248" lon="4.29132">
        <ele>417.83</ele>
        <time>2016-09-05T10:52:22Z</time>
      </trkpt>
      <trkpt lat="45.76248" lon="4.29132">
        <ele>418.31</ele>
        <time>2016-09-05T10:52:49Z</time>
      </trkpt>
      <trkpt lat="45.76247" lon="4.29132">
        <ele>418.79</ele>
        <time>2016-09-05T10:53:28Z</time>
      </trkpt>
      <trkpt lat="45.76248" lon="4.29132">
        <ele>419.27</ele>
        <time>2016-09-05T10:54:05Z</time>
      </trkpt>
      <trkpt lat="45.76248" lon="4.29132">
        <ele>419.27</ele>
        <time>2016-09-05T10:54:33Z</time>
      </trkpt>
      <trkpt lat="45.76248" lon="4.29132">
        <ele>419.75</ele>
        <time>2016-09-05T10:54:49Z</time>
      </trkpt>
      <trkpt lat="45.76248" lon="4.29132">
        <ele>419.75</ele>
        <time>2016-09-05T10:55:06Z</time>
      </trkpt>
      <trkpt lat="45.76248" lon="4.29132">
        <ele>420.23</ele>
        <time>2016-09-05T10:55:22Z</time>
      </trkpt>
      <trkpt lat="45.76248" lon="4.29133">
        <ele>420.23</ele>
        <time>2016-09-05T10:55:38Z</time>
      </trkpt>
      <trkpt lat="45.76248" lon="4.29133">
        <ele>420.23</ele>
        <time>2016-09-05T10:56:00Z</time>
      </trkpt>
      <trkpt lat="45.76248" lon="4.29133">
        <ele>420.23</ele>
        <time>2016-09-05T10:56:18Z</time>
      </trkpt>
      <trkpt lat="45.76248" lon="4.29133">
        <ele>420.23</ele>
        <time>2016-09-05T10:56:35Z</time>
      </trkpt>
      <trkpt lat="45.76248" lon="4.29133">
        <ele>419.75</ele>
        <time>2016-09-05T10:56:57Z</time>
      </trkpt>
      <trkpt lat="45.76247" lon="4.29131">
        <ele>419.75</ele>
        <time>2016-09-05T10:57:14Z</time>
      </trkpt>
      <trkpt lat="45.76247" lon="4.29123">
        <ele>421.19</ele>
        <time>2016-09-05T10:57:27Z</time>
      </trkpt>
      <trkpt lat="45.76247" lon="4.29119">
        <ele>422.16</ele>
        <time>2016-09-05T10:57:41Z</time>
      </trkpt>
      <trkpt lat="45.76253" lon="4.2911">
        <ele>423.12</ele>
        <time>2016-09-05T10:57:53Z</time>
      </trkpt>
      <trkpt lat="45.76255" lon="4.29102">
        <ele>423.12</ele>
        <time>2016-09-05T10:58:07Z</time>
      </trkpt>
      <trkpt lat="45.76254" lon="4.291">
        <ele>421.19</ele>
        <time>2016-09-05T10:58:19Z</time>
      </trkpt>
      <trkpt lat="45.76252" lon="4.29102">
        <ele>418.79</ele>
        <time>2016-09-05T10:58:31Z</time>
      </trkpt>
      <trkpt lat="45.76236" lon="4.2911">
        <ele>417.35</ele>
        <time>2016-09-05T10:58:47Z</time>
      </trkpt>
      <trkpt lat="45.76221" lon="4.29123">
        <ele>415.43</ele>
        <time>2016-09-05T10:59:05Z</time>
      </trkpt>
      <trkpt lat="45.76216" lon="4.29124">
        <ele>415.91</ele>
        <time>2016-09-05T10:59:20Z</time>
      </trkpt>
      <trkpt lat="45.76207" lon="4.29114">
        <ele>413.02</ele>
        <time>2016-09-05T10:59:33Z</time>
      </trkpt>
      <trkpt lat="45.76202" lon="4.29107">
        <ele>414.47</ele>
        <time>2016-09-05T10:59:43Z</time>
      </trkpt>
      <trkpt lat="45.76188" lon="4.29093">
        <ele>416.87</ele>
        <time>2016-09-05T10:59:59Z</time>
      </trkpt>
      <trkpt lat="45.76169" lon="4.29093">
        <ele>418.31</ele>
        <time>2016-09-05T11:00:16Z</time>
      </trkpt>
      <trkpt lat="45.76159" lon="4.29092">
        <ele>419.75</ele>
        <time>2016-09-05T11:00:26Z</time>
      </trkpt>
      <trkpt lat="45.76139" lon="4.29096">
        <ele>422.64</ele>
        <time>2016-09-05T11:00:44Z</time>
      </trkpt>
      <trkpt lat="45.76116" lon="4.29107">
        <ele>424.56</ele>
        <time>2016-09-05T11:01:02Z</time>
      </trkpt>
      <trkpt lat="45.76091" lon="4.29122">
        <ele>422.64</ele>
        <time>2016-09-05T11:01:20Z</time>
      </trkpt>
      <trkpt lat="45.76068" lon="4.29136">
        <ele>426.48</ele>
        <time>2016-09-05T11:01:38Z</time>
      </trkpt>
      <trkpt lat="45.76048" lon="4.29144">
        <ele>427.44</ele>
        <time>2016-09-05T11:01:55Z</time>
      </trkpt>
      <trkpt lat="45.76027" lon="4.29147">
        <ele>427.92</ele>
        <time>2016-09-05T11:02:12Z</time>
      </trkpt>
      <trkpt lat="45.76005" lon="4.29155">
        <ele>427.44</ele>
        <time>2016-09-05T11:02:29Z</time>
      </trkpt>
      <trkpt lat="45.75981" lon="4.29171">
        <ele>427.44</ele>
        <time>2016-09-05T11:02:49Z</time>
      </trkpt>
      <trkpt lat="45.75959" lon="4.2918">
        <ele>428.4</ele>
        <time>2016-09-05T11:03:08Z</time>
      </trkpt>
      <trkpt lat="45.75933" lon="4.29172">
        <ele>429.37</ele>
        <time>2016-09-05T11:03:28Z</time>
      </trkpt>
      <trkpt lat="45.75914" lon="4.29157">
        <ele>428.4</ele>
        <time>2016-09-05T11:03:46Z</time>
      </trkpt>
      <trkpt lat="45.75889" lon="4.29145">
        <ele>430.33</ele>
        <time>2016-09-05T11:04:07Z</time>
      </trkpt>
      <trkpt lat="45.75885" lon="4.29142">
        <ele>431.29</ele>
        <time>2016-09-05T11:04:11Z</time>
      </trkpt>
      <trkpt lat="45.7588" lon="4.29136">
        <ele>432.73</ele>
        <time>2016-09-05T11:04:16Z</time>
      </trkpt>
      <trkpt lat="45.75864" lon="4.29109">
        <ele>436.58</ele>
        <time>2016-09-05T11:04:36Z</time>
      </trkpt>
      <trkpt lat="45.75839" lon="4.29093">
        <ele>437.06</ele>
        <time>2016-09-05T11:04:55Z</time>
      </trkpt>
      <trkpt lat="45.75818" lon="4.29084">
        <ele>438.98</ele>
        <time>2016-09-05T11:05:13Z</time>
      </trkpt>
      <trkpt lat="45.75797" lon="4.2907">
        <ele>441.86</ele>
        <time>2016-09-05T11:05:31Z</time>
      </trkpt>
      <trkpt lat="45.7578" lon="4.29055">
        <ele>443.31</ele>
        <time>2016-09-05T11:05:47Z</time>
      </trkpt>
      <trkpt lat="45.7576" lon="4.29035">
        <ele>446.19</ele>
        <time>2016-09-05T11:06:06Z</time>
      </trkpt>
      <trkpt lat="45.75741" lon="4.29024">
        <ele>448.11</ele>
        <time>2016-09-05T11:06:23Z</time>
      </trkpt>
      <trkpt lat="45.75723" lon="4.29019">
        <ele>450.03</ele>
        <time>2016-09-05T11:06:38Z</time>
      </trkpt>
      <trkpt lat="45.75702" lon="4.29016">
        <ele>451</ele>
        <time>2016-09-05T11:06:56Z</time>
      </trkpt>
      <trkpt lat="45.75684" lon="4.29022">
        <ele>449.55</ele>
        <time>2016-09-05T11:07:09Z</time>
      </trkpt>
      <trkpt lat="45.75678" lon="4.29022">
        <ele>448.59</ele>
        <time>2016-09-05T11:07:22Z</time>
      </trkpt>
      <trkpt lat="45.75683" lon="4.29014">
        <ele>448.59</ele>
        <time>2016-09-05T11:07:35Z</time>
      </trkpt>
      <trkpt lat="45.75663" lon="4.29044">
        <ele>446.19</ele>
        <time>2016-09-05T11:07:53Z</time>
      </trkpt>
      <trkpt lat="45.75643" lon="4.29063">
        <ele>438.02</ele>
        <time>2016-09-05T11:08:07Z</time>
      </trkpt>
      <trkpt lat="45.75631" lon="4.29074">
        <ele>432.73</ele>
        <time>2016-09-05T11:08:22Z</time>
      </trkpt>
      <trkpt lat="45.7563" lon="4.29074">
        <ele>432.73</ele>
        <time>2016-09-05T11:08:23Z</time>
      </trkpt>
      <trkpt lat="45.75618" lon="4.29084">
        <ele>434.65</ele>
        <time>2016-09-05T11:08:39Z</time>
      </trkpt>
      <trkpt lat="45.75607" lon="4.29089">
        <ele>434.65</ele>
        <time>2016-09-05T11:08:50Z</time>
      </trkpt>
      <trkpt lat="45.75589" lon="4.29077">
        <ele>434.65</ele>
        <time>2016-09-05T11:09:07Z</time>
      </trkpt>
      <trkpt lat="45.75567" lon="4.29055">
        <ele>437.06</ele>
        <time>2016-09-05T11:09:28Z</time>
      </trkpt>
      <trkpt lat="45.75552" lon="4.29041">
        <ele>436.1</ele>
        <time>2016-09-05T11:09:45Z</time>
      </trkpt>
      <trkpt lat="45.75533" lon="4.29025">
        <ele>438.98</ele>
        <time>2016-09-05T11:10:03Z</time>
      </trkpt>
      <trkpt lat="45.75526" lon="4.29015">
        <ele>441.38</ele>
        <time>2016-09-05T11:10:11Z</time>
      </trkpt>
      <trkpt lat="45.7552" lon="4.28985">
        <ele>448.11</ele>
        <time>2016-09-05T11:10:29Z</time>
      </trkpt>
      <trkpt lat="45.75511" lon="4.28956">
        <ele>451.48</ele>
        <time>2016-09-05T11:10:48Z</time>
      </trkpt>
      <trkpt lat="45.7551" lon="4.28955">
        <ele>451</ele>
        <time>2016-09-05T11:10:50Z</time>
      </trkpt>
      <trkpt lat="45.75495" lon="4.28948">
        <ele>450.52</ele>
        <time>2016-09-05T11:11:05Z</time>
      </trkpt>
      <trkpt lat="45.75474" lon="4.28945">
        <ele>451</ele>
        <time>2016-09-05T11:11:23Z</time>
      </trkpt>
      <trkpt lat="45.75447" lon="4.28941">
        <ele>451</ele>
        <time>2016-09-05T11:11:44Z</time>
      </trkpt>
      <trkpt lat="45.75425" lon="4.28936">
        <ele>450.03</ele>
        <time>2016-09-05T11:12:01Z</time>
      </trkpt>
      <trkpt lat="45.75402" lon="4.28931">
        <ele>449.07</ele>
        <time>2016-09-05T11:12:19Z</time>
      </trkpt>
      <trkpt lat="45.7538" lon="4.28935">
        <ele>446.67</ele>
        <time>2016-09-05T11:12:36Z</time>
      </trkpt>
      <trkpt lat="45.75355" lon="4.28948">
        <ele>444.27</ele>
        <time>2016-09-05T11:12:57Z</time>
      </trkpt>
      <trkpt lat="45.75332" lon="4.28956">
        <ele>442.82</ele>
        <time>2016-09-05T11:13:16Z</time>
      </trkpt>
      <trkpt lat="45.75305" lon="4.28956">
        <ele>441.86</ele>
        <time>2016-09-05T11:13:37Z</time>
      </trkpt>
      <trkpt lat="45.75284" lon="4.28949">
        <ele>443.31</ele>
        <time>2016-09-05T11:13:54Z</time>
      </trkpt>
      <trkpt lat="45.75263" lon="4.28939">
        <ele>444.27</ele>
        <time>2016-09-05T11:14:12Z</time>
      </trkpt>
      <trkpt lat="45.75242" lon="4.28931">
        <ele>446.19</ele>
        <time>2016-09-05T11:14:29Z</time>
      </trkpt>
      <trkpt lat="45.75235" lon="4.2893">
        <ele>446.19</ele>
        <time>2016-09-05T11:14:36Z</time>
      </trkpt>
      <trkpt lat="45.75232" lon="4.28932">
        <ele>446.19</ele>
        <time>2016-09-05T11:14:39Z</time>
      </trkpt>
      <trkpt lat="45.75224" lon="4.28946">
        <ele>445.23</ele>
        <time>2016-09-05T11:14:52Z</time>
      </trkpt>
      <trkpt lat="45.75208" lon="4.2895">
        <ele>442.34</ele>
        <time>2016-09-05T11:15:08Z</time>
      </trkpt>
      <trkpt lat="45.75206" lon="4.28959">
        <ele>441.38</ele>
        <time>2016-09-05T11:15:13Z</time>
      </trkpt>
      <trkpt lat="45.75206" lon="4.28963">
        <ele>440.9</ele>
        <time>2016-09-05T11:15:16Z</time>
      </trkpt>
      <trkpt lat="45.75199" lon="4.28982">
        <ele>439.94</ele>
        <time>2016-09-05T11:15:30Z</time>
      </trkpt>
      <trkpt lat="45.75197" lon="4.28983">
        <ele>439.94</ele>
        <time>2016-09-05T11:15:32Z</time>
      </trkpt>
      <trkpt lat="45.75177" lon="4.28977">
        <ele>443.79</ele>
        <time>2016-09-05T11:15:51Z</time>
      </trkpt>
      <trkpt lat="45.75158" lon="4.28976">
        <ele>446.67</ele>
        <time>2016-09-05T11:16:08Z</time>
      </trkpt>
      <trkpt lat="45.7514" lon="4.28973">
        <ele>449.55</ele>
        <time>2016-09-05T11:16:25Z</time>
      </trkpt>
      <trkpt lat="45.75124" lon="4.28972">
        <ele>453.88</ele>
        <time>2016-09-05T11:16:39Z</time>
      </trkpt>
      <trkpt lat="45.75099" lon="4.28969">
        <ele>454.84</ele>
        <time>2016-09-05T11:16:56Z</time>
      </trkpt>
      <trkpt lat="45.75073" lon="4.28968">
        <ele>451.96</ele>
        <time>2016-09-05T11:17:14Z</time>
      </trkpt>
      <trkpt lat="45.75055" lon="4.28968">
        <ele>454.84</ele>
        <time>2016-09-05T11:17:29Z</time>
      </trkpt>
      <trkpt lat="45.75048" lon="4.28964">
        <ele>454.84</ele>
        <time>2016-09-05T11:17:38Z</time>
      </trkpt>
      <trkpt lat="45.75039" lon="4.28961">
        <ele>456.28</ele>
        <time>2016-09-05T11:17:45Z</time>
      </trkpt>
      <trkpt lat="45.75014" lon="4.28951">
        <ele>457.24</ele>
        <time>2016-09-05T11:18:04Z</time>
      </trkpt>
      <trkpt lat="45.74996" lon="4.28949">
        <ele>461.57</ele>
        <time>2016-09-05T11:18:20Z</time>
      </trkpt>
      <trkpt lat="45.74979" lon="4.28948">
        <ele>461.57</ele>
        <time>2016-09-05T11:18:34Z</time>
      </trkpt>
      <trkpt lat="45.74957" lon="4.28949">
        <ele>460.13</ele>
        <time>2016-09-05T11:18:50Z</time>
      </trkpt>
      <trkpt lat="45.74932" lon="4.28949">
        <ele>459.17</ele>
        <time>2016-09-05T11:19:08Z</time>
      </trkpt>
      <trkpt lat="45.74911" lon="4.28951">
        <ele>458.69</ele>
        <time>2016-09-05T11:19:25Z</time>
      </trkpt>
      <trkpt lat="45.74893" lon="4.28954">
        <ele>457.24</ele>
        <time>2016-09-05T11:19:40Z</time>
      </trkpt>
      <trkpt lat="45.74874" lon="4.28953">
        <ele>453.88</ele>
        <time>2016-09-05T11:19:55Z</time>
      </trkpt>
      <trkpt lat="45.74852" lon="4.28941">
        <ele>450.03</ele>
        <time>2016-09-05T11:20:11Z</time>
      </trkpt>
      <trkpt lat="45.74836" lon="4.28933">
        <ele>448.11</ele>
        <time>2016-09-05T11:20:26Z</time>
      </trkpt>
      <trkpt lat="45.74823" lon="4.28927">
        <ele>446.19</ele>
        <time>2016-09-05T11:20:37Z</time>
      </trkpt>
      <trkpt lat="45.7482" lon="4.28926">
        <ele>446.19</ele>
        <time>2016-09-05T11:20:40Z</time>
      </trkpt>
      <trkpt lat="45.74803" lon="4.28915">
        <ele>444.75</ele>
        <time>2016-09-05T11:20:56Z</time>
      </trkpt>
      <trkpt lat="45.74788" lon="4.28903">
        <ele>441.38</ele>
        <time>2016-09-05T11:21:11Z</time>
      </trkpt>
      <trkpt lat="45.74773" lon="4.28899">
        <ele>438.98</ele>
        <time>2016-09-05T11:21:26Z</time>
      </trkpt>
      <trkpt lat="45.74758" lon="4.28904">
        <ele>437.06</ele>
        <time>2016-09-05T11:21:41Z</time>
      </trkpt>
      <trkpt lat="45.74739" lon="4.28916">
        <ele>435.13</ele>
        <time>2016-09-05T11:21:59Z</time>
      </trkpt>
      <trkpt lat="45.74716" lon="4.2893">
        <ele>433.21</ele>
        <time>2016-09-05T11:22:20Z</time>
      </trkpt>
      <trkpt lat="45.74697" lon="4.28941">
        <ele>433.69</ele>
        <time>2016-09-05T11:22:37Z</time>
      </trkpt>
      <trkpt lat="45.74682" lon="4.28952">
        <ele>434.65</ele>
        <time>2016-09-05T11:22:54Z</time>
      </trkpt>
      <trkpt lat="45.74668" lon="4.28952">
        <ele>433.69</ele>
        <time>2016-09-05T11:23:04Z</time>
      </trkpt>
      <trkpt lat="45.74662" lon="4.28943">
        <ele>434.65</ele>
        <time>2016-09-05T11:23:11Z</time>
      </trkpt>
      <trkpt lat="45.74659" lon="4.28922">
        <ele>440.42</ele>
        <time>2016-09-05T11:23:25Z</time>
      </trkpt>
      <trkpt lat="45.74659" lon="4.28916">
        <ele>442.34</ele>
        <time>2016-09-05T11:23:29Z</time>
      </trkpt>
      <trkpt lat="45.74661" lon="4.28896">
        <ele>444.75</ele>
        <time>2016-09-05T11:23:43Z</time>
      </trkpt>
      <trkpt lat="45.74668" lon="4.28876">
        <ele>447.15</ele>
        <time>2016-09-05T11:23:58Z</time>
      </trkpt>
      <trkpt lat="45.74672" lon="4.28851">
        <ele>453.88</ele>
        <time>2016-09-05T11:24:13Z</time>
      </trkpt>
      <trkpt lat="45.74675" lon="4.2883">
        <ele>460.13</ele>
        <time>2016-09-05T11:24:24Z</time>
      </trkpt>
      <trkpt lat="45.74672" lon="4.28803">
        <ele>463.49</ele>
        <time>2016-09-05T11:24:40Z</time>
      </trkpt>
      <trkpt lat="45.74664" lon="4.28779">
        <ele>442.82</ele>
        <time>2016-09-05T11:24:54Z</time>
      </trkpt>
      <trkpt lat="45.74646" lon="4.28765">
        <ele>438.02</ele>
        <time>2016-09-05T11:25:11Z</time>
      </trkpt>
      <trkpt lat="45.7463" lon="4.28757">
        <ele>436.58</ele>
        <time>2016-09-05T11:25:27Z</time>
      </trkpt>
      <trkpt lat="45.74608" lon="4.28751">
        <ele>434.65</ele>
        <time>2016-09-05T11:25:44Z</time>
      </trkpt>
      <trkpt lat="45.74587" lon="4.28741">
        <ele>431.77</ele>
        <time>2016-09-05T11:26:00Z</time>
      </trkpt>
      <trkpt lat="45.74567" lon="4.28733">
        <ele>429.85</ele>
        <time>2016-09-05T11:26:17Z</time>
      </trkpt>
      <trkpt lat="45.7455" lon="4.28726">
        <ele>427.92</ele>
        <time>2016-09-05T11:26:31Z</time>
      </trkpt>
      <trkpt lat="45.74531" lon="4.28717">
        <ele>425.04</ele>
        <time>2016-09-05T11:26:48Z</time>
      </trkpt>
      <trkpt lat="45.74527" lon="4.28716">
        <ele>424.08</ele>
        <time>2016-09-05T11:26:52Z</time>
      </trkpt>
      <trkpt lat="45.74511" lon="4.2871">
        <ele>422.64</ele>
        <time>2016-09-05T11:27:06Z</time>
      </trkpt>
      <trkpt lat="45.74495" lon="4.28703">
        <ele>421.68</ele>
        <time>2016-09-05T11:27:23Z</time>
      </trkpt>
      <trkpt lat="45.74494" lon="4.28701">
        <ele>420.23</ele>
        <time>2016-09-05T11:27:39Z</time>
      </trkpt>
      <trkpt lat="45.74492" lon="4.287">
        <ele>419.27</ele>
        <time>2016-09-05T11:27:58Z</time>
      </trkpt>
      <trkpt lat="45.74492" lon="4.287">
        <ele>419.27</ele>
        <time>2016-09-05T11:28:18Z</time>
      </trkpt>
      <trkpt lat="45.74491" lon="4.28699">
        <ele>418.79</ele>
        <time>2016-09-05T11:28:34Z</time>
      </trkpt>
      <trkpt lat="45.7449" lon="4.28699">
        <ele>418.79</ele>
        <time>2016-09-05T11:28:53Z</time>
      </trkpt>
      <trkpt lat="45.7449" lon="4.28697">
        <ele>418.79</ele>
        <time>2016-09-05T11:28:55Z</time>
      </trkpt>
      <trkpt lat="45.7449" lon="4.28693">
        <ele>418.31</ele>
        <time>2016-09-05T11:28:58Z</time>
      </trkpt>
      <trkpt lat="45.74491" lon="4.2869">
        <ele>418.31</ele>
        <time>2016-09-05T11:29:00Z</time>
      </trkpt>
      <trkpt lat="45.74501" lon="4.28672">
        <ele>417.83</ele>
        <time>2016-09-05T11:29:16Z</time>
      </trkpt>
      <trkpt lat="45.74509" lon="4.28664">
        <ele>416.87</ele>
        <time>2016-09-05T11:29:26Z</time>
      </trkpt>
      <trkpt lat="45.74517" lon="4.28654">
        <ele>418.79</ele>
        <time>2016-09-05T11:29:37Z</time>
      </trkpt>
      <trkpt lat="45.74523" lon="4.28647">
        <ele>417.83</ele>
        <time>2016-09-05T11:29:49Z</time>
      </trkpt>
      <trkpt lat="45.74524" lon="4.28648">
        <ele>418.79</ele>
        <time>2016-09-05T11:30:02Z</time>
      </trkpt>
      <trkpt lat="45.74524" lon="4.28648">
        <ele>418.79</ele>
        <time>2016-09-05T11:30:17Z</time>
      </trkpt>
      <trkpt lat="45.74532" lon="4.28636">
        <ele>417.35</ele>
        <time>2016-09-05T11:30:32Z</time>
      </trkpt>
      <trkpt lat="45.7454" lon="4.28618">
        <ele>420.23</ele>
        <time>2016-09-05T11:30:47Z</time>
      </trkpt>
      <trkpt lat="45.74545" lon="4.28604">
        <ele>421.68</ele>
        <time>2016-09-05T11:31:01Z</time>
      </trkpt>
      <trkpt lat="45.74552" lon="4.28586">
        <ele>424.56</ele>
        <time>2016-09-05T11:31:19Z</time>
      </trkpt>
      <trkpt lat="45.74562" lon="4.28566">
        <ele>421.19</ele>
        <time>2016-09-05T11:31:35Z</time>
      </trkpt>
      <trkpt lat="45.74565" lon="4.28561">
        <ele>418.79</ele>
        <time>2016-09-05T11:31:51Z</time>
      </trkpt>
      <trkpt lat="45.7457" lon="4.28551">
        <ele>415.91</ele>
        <time>2016-09-05T11:32:05Z</time>
      </trkpt>
      <trkpt lat="45.74584" lon="4.28535">
        <ele>414.47</ele>
        <time>2016-09-05T11:32:22Z</time>
      </trkpt>
      <trkpt lat="45.74593" lon="4.28521">
        <ele>413.98</ele>
        <time>2016-09-05T11:32:32Z</time>
      </trkpt>
      <trkpt lat="45.74595" lon="4.2849">
        <ele>410.62</ele>
        <time>2016-09-05T11:32:50Z</time>
      </trkpt>
      <trkpt lat="45.74594" lon="4.28488">
        <ele>410.14</ele>
        <time>2016-09-05T11:32:52Z</time>
      </trkpt>
      <trkpt lat="45.74585" lon="4.28475">
        <ele>405.81</ele>
        <time>2016-09-05T11:33:09Z</time>
      </trkpt>
      <trkpt lat="45.74575" lon="4.28474">
        <ele>406.29</ele>
        <time>2016-09-05T11:33:20Z</time>
      </trkpt>
      <trkpt lat="45.74555" lon="4.28475">
        <ele>402.93</ele>
        <time>2016-09-05T11:33:38Z</time>
      </trkpt>
      <trkpt lat="45.74544" lon="4.28478">
        <ele>401.97</ele>
        <time>2016-09-05T11:33:51Z</time>
      </trkpt>
      <trkpt lat="45.74523" lon="4.28483">
        <ele>399.57</ele>
        <time>2016-09-05T11:34:10Z</time>
      </trkpt>
      <trkpt lat="45.74521" lon="4.28484">
        <ele>399.57</ele>
        <time>2016-09-05T11:34:12Z</time>
      </trkpt>
      <trkpt lat="45.74509" lon="4.28484">
        <ele>397.16</ele>
        <time>2016-09-05T11:34:24Z</time>
      </trkpt>
      <trkpt lat="45.74488" lon="4.28491">
        <ele>396.2</ele>
        <time>2016-09-05T11:34:43Z</time>
      </trkpt>
      <trkpt lat="45.74469" lon="4.28497">
        <ele>393.8</ele>
        <time>2016-09-05T11:35:00Z</time>
      </trkpt>
      <trkpt lat="45.74453" lon="4.28504">
        <ele>393.8</ele>
        <time>2016-09-05T11:35:16Z</time>
      </trkpt>
      <trkpt lat="45.74444" lon="4.28506">
        <ele>394.28</ele>
        <time>2016-09-05T11:35:25Z</time>
      </trkpt>
      <trkpt lat="45.74418" lon="4.28512">
        <ele>395.24</ele>
        <time>2016-09-05T11:35:44Z</time>
      </trkpt>
      <trkpt lat="45.74399" lon="4.28517">
        <ele>394.76</ele>
        <time>2016-09-05T11:36:01Z</time>
      </trkpt>
      <trkpt lat="45.74385" lon="4.28519">
        <ele>392.84</ele>
        <time>2016-09-05T11:36:14Z</time>
      </trkpt>
      <trkpt lat="45.74364" lon="4.28528">
        <ele>391.39</ele>
        <time>2016-09-05T11:36:32Z</time>
      </trkpt>
      <trkpt lat="45.74343" lon="4.28534">
        <ele>388.99</ele>
        <time>2016-09-05T11:36:50Z</time>
      </trkpt>
      <trkpt lat="45.74328" lon="4.28539">
        <ele>389.47</ele>
        <time>2016-09-05T11:37:05Z</time>
      </trkpt>
      <trkpt lat="45.74315" lon="4.28543">
        <ele>392.36</ele>
        <time>2016-09-05T11:37:18Z</time>
      </trkpt>
      <trkpt lat="45.74301" lon="4.28544">
        <ele>396.2</ele>
        <time>2016-09-05T11:37:35Z</time>
      </trkpt>
      <trkpt lat="45.74285" lon="4.28542">
        <ele>394.28</ele>
        <time>2016-09-05T11:37:50Z</time>
      </trkpt>
      <trkpt lat="45.74269" lon="4.28541">
        <ele>392.36</ele>
        <time>2016-09-05T11:38:02Z</time>
      </trkpt>
      <trkpt lat="45.74248" lon="4.28537">
        <ele>387.55</ele>
        <time>2016-09-05T11:38:18Z</time>
      </trkpt>
      <trkpt lat="45.74243" lon="4.28537">
        <ele>387.07</ele>
        <time>2016-09-05T11:38:25Z</time>
      </trkpt>
      <trkpt lat="45.74231" lon="4.28532">
        <ele>385.63</ele>
        <time>2016-09-05T11:38:39Z</time>
      </trkpt>
      <trkpt lat="45.74211" lon="4.28523">
        <ele>380.82</ele>
        <time>2016-09-05T11:38:54Z</time>
      </trkpt>
      <trkpt lat="45.74191" lon="4.28514">
        <ele>377.94</ele>
        <time>2016-09-05T11:39:10Z</time>
      </trkpt>
      <trkpt lat="45.74174" lon="4.28499">
        <ele>375.05</ele>
        <time>2016-09-05T11:39:27Z</time>
      </trkpt>
      <trkpt lat="45.74161" lon="4.28483">
        <ele>374.57</ele>
        <time>2016-09-05T11:39:42Z</time>
      </trkpt>
      <trkpt lat="45.7415" lon="4.2846">
        <ele>371.69</ele>
        <time>2016-09-05T11:39:58Z</time>
      </trkpt>
      <trkpt lat="45.74146" lon="4.2843">
        <ele>371.21</ele>
        <time>2016-09-05T11:40:15Z</time>
      </trkpt>
      <trkpt lat="45.74145" lon="4.28401">
        <ele>369.28</ele>
        <time>2016-09-05T11:40:31Z</time>
      </trkpt>
      <trkpt lat="45.74145" lon="4.28369">
        <ele>365.44</ele>
        <time>2016-09-05T11:40:48Z</time>
      </trkpt>
      <trkpt lat="45.74143" lon="4.2834">
        <ele>362.55</ele>
        <time>2016-09-05T11:41:05Z</time>
      </trkpt>
      <trkpt lat="45.74142" lon="4.28312">
        <ele>362.07</ele>
        <time>2016-09-05T11:41:22Z</time>
      </trkpt>
      <trkpt lat="45.74141" lon="4.28284">
        <ele>360.63</ele>
        <time>2016-09-05T11:41:39Z</time>
      </trkpt>
      <trkpt lat="45.74141" lon="4.28282">
        <ele>360.15</ele>
        <time>2016-09-05T11:41:40Z</time>
      </trkpt>
      <trkpt lat="45.74141" lon="4.28276">
        <ele>360.15</ele>
        <time>2016-09-05T11:41:44Z</time>
      </trkpt>
      <trkpt lat="45.74141" lon="4.28247">
        <ele>360.15</ele>
        <time>2016-09-05T11:42:01Z</time>
      </trkpt>
      <trkpt lat="45.7414" lon="4.28215">
        <ele>359.67</ele>
        <time>2016-09-05T11:42:19Z</time>
      </trkpt>
      <trkpt lat="45.74142" lon="4.28206">
        <ele>359.67</ele>
        <time>2016-09-05T11:42:25Z</time>
      </trkpt>
      <trkpt lat="45.74169" lon="4.282">
        <ele>364</ele>
        <time>2016-09-05T11:42:46Z</time>
      </trkpt>
      <trkpt lat="45.74172" lon="4.28201">
        <ele>364.48</ele>
        <time>2016-09-05T11:42:48Z</time>
      </trkpt>
      <trkpt lat="45.74198" lon="4.28204">
        <ele>366.88</ele>
        <time>2016-09-05T11:43:08Z</time>
      </trkpt>
      <trkpt lat="45.7422" lon="4.28211">
        <ele>365.92</ele>
        <time>2016-09-05T11:43:25Z</time>
      </trkpt>
      <trkpt lat="45.74241" lon="4.28219">
        <ele>365.92</ele>
        <time>2016-09-05T11:43:44Z</time>
      </trkpt>
      <trkpt lat="45.74267" lon="4.28224">
        <ele>364.96</ele>
        <time>2016-09-05T11:44:06Z</time>
      </trkpt>
      <trkpt lat="45.74292" lon="4.28222">
        <ele>365.44</ele>
        <time>2016-09-05T11:44:26Z</time>
      </trkpt>
      <trkpt lat="45.74322" lon="4.28219">
        <ele>365.92</ele>
        <time>2016-09-05T11:44:49Z</time>
      </trkpt>
      <trkpt lat="45.74348" lon="4.28214">
        <ele>365.92</ele>
        <time>2016-09-05T11:45:09Z</time>
      </trkpt>
      <trkpt lat="45.74373" lon="4.28202">
        <ele>365.92</ele>
        <time>2016-09-05T11:45:30Z</time>
      </trkpt>
      <trkpt lat="45.74394" lon="4.28191">
        <ele>364.48</ele>
        <time>2016-09-05T11:45:47Z</time>
      </trkpt>
      <trkpt lat="45.74408" lon="4.28167">
        <ele>363.52</ele>
        <time>2016-09-05T11:46:05Z</time>
      </trkpt>
      <trkpt lat="45.74419" lon="4.28141">
        <ele>362.55</ele>
        <time>2016-09-05T11:46:22Z</time>
      </trkpt>
      <trkpt lat="45.74434" lon="4.28113">
        <ele>361.59</ele>
        <time>2016-09-05T11:46:40Z</time>
      </trkpt>
      <trkpt lat="45.74455" lon="4.28091">
        <ele>360.63</ele>
        <time>2016-09-05T11:46:59Z</time>
      </trkpt>
      <trkpt lat="45.74478" lon="4.28078">
        <ele>360.63</ele>
        <time>2016-09-05T11:47:17Z</time>
      </trkpt>
      <trkpt lat="45.74495" lon="4.28062">
        <ele>360.63</ele>
        <time>2016-09-05T11:47:34Z</time>
      </trkpt>
      <trkpt lat="45.74509" lon="4.28044">
        <ele>359.67</ele>
        <time>2016-09-05T11:47:50Z</time>
      </trkpt>
      <trkpt lat="45.7452" lon="4.2802">
        <ele>359.67</ele>
        <time>2016-09-05T11:48:08Z</time>
      </trkpt>
      <trkpt lat="45.74527" lon="4.2801">
        <ele>360.63</ele>
        <time>2016-09-05T11:48:18Z</time>
      </trkpt>
      <trkpt lat="45.74546" lon="4.27997">
        <ele>359.67</ele>
        <time>2016-09-05T11:48:34Z</time>
      </trkpt>
      <trkpt lat="45.74565" lon="4.27984">
        <ele>360.15</ele>
        <time>2016-09-05T11:48:49Z</time>
      </trkpt>
      <trkpt lat="45.74586" lon="4.27986">
        <ele>357.27</ele>
        <time>2016-09-05T11:49:06Z</time>
      </trkpt>
      <trkpt lat="45.74596" lon="4.27987">
        <ele>355.34</ele>
        <time>2016-09-05T11:49:15Z</time>
      </trkpt>
      <trkpt lat="45.74623" lon="4.27991">
        <ele>355.83</ele>
        <time>2016-09-05T11:49:34Z</time>
      </trkpt>
      <trkpt lat="45.7464" lon="4.27983">
        <ele>355.83</ele>
        <time>2016-09-05T11:49:49Z</time>
      </trkpt>
      <trkpt lat="45.74658" lon="4.27982">
        <ele>359.67</ele>
        <time>2016-09-05T11:50:06Z</time>
      </trkpt>
      <trkpt lat="45.7466" lon="4.27981">
        <ele>359.19</ele>
        <time>2016-09-05T11:50:09Z</time>
      </trkpt>
      <trkpt lat="45.74657" lon="4.27973">
        <ele>358.71</ele>
        <time>2016-09-05T11:50:18Z</time>
      </trkpt>
      <trkpt lat="45.74652" lon="4.27972">
        <ele>358.71</ele>
        <time>2016-09-05T11:50:24Z</time>
      </trkpt>
      <trkpt lat="45.74639" lon="4.27942">
        <ele>356.79</ele>
        <time>2016-09-05T11:50:42Z</time>
      </trkpt>
      <trkpt lat="45.74633" lon="4.27935">
        <ele>357.27</ele>
        <time>2016-09-05T11:50:49Z</time>
      </trkpt>
      <trkpt lat="45.74621" lon="4.27915">
        <ele>358.23</ele>
        <time>2016-09-05T11:51:04Z</time>
      </trkpt>
      <trkpt lat="45.74616" lon="4.27911">
        <ele>358.71</ele>
        <time>2016-09-05T11:51:09Z</time>
      </trkpt>
      <trkpt lat="45.74606" lon="4.27894">
        <ele>357.27</ele>
        <time>2016-09-05T11:51:18Z</time>
      </trkpt>
      <trkpt lat="45.74599" lon="4.27885">
        <ele>356.79</ele>
        <time>2016-09-05T11:51:24Z</time>
      </trkpt>
      <trkpt lat="45.74586" lon="4.27867">
        <ele>355.34</ele>
        <time>2016-09-05T11:51:39Z</time>
      </trkpt>
      <trkpt lat="45.74576" lon="4.27847">
        <ele>355.34</ele>
        <time>2016-09-05T11:51:51Z</time>
      </trkpt>
      <trkpt lat="45.74567" lon="4.27826">
        <ele>355.34</ele>
        <time>2016-09-05T11:52:04Z</time>
      </trkpt>
      <trkpt lat="45.74559" lon="4.27804">
        <ele>355.83</ele>
        <time>2016-09-05T11:52:18Z</time>
      </trkpt>
      <trkpt lat="45.74554" lon="4.27783">
        <ele>354.86</ele>
        <time>2016-09-05T11:52:31Z</time>
      </trkpt>
      <trkpt lat="45.7455" lon="4.27757">
        <ele>351.5</ele>
        <time>2016-09-05T11:52:45Z</time>
      </trkpt>
      <trkpt lat="45.74546" lon="4.27741">
        <ele>350.06</ele>
        <time>2016-09-05T11:52:58Z</time>
      </trkpt>
      <trkpt lat="45.74539" lon="4.27721">
        <ele>348.62</ele>
        <time>2016-09-05T11:53:12Z</time>
      </trkpt>
      <trkpt lat="45.74525" lon="4.27693">
        <ele>348.13</ele>
        <time>2016-09-05T11:53:26Z</time>
      </trkpt>
      <trkpt lat="45.74517" lon="4.27675">
        <ele>346.69</ele>
        <time>2016-09-05T11:53:39Z</time>
      </trkpt>
      <trkpt lat="45.74503" lon="4.27655">
        <ele>349.58</ele>
        <time>2016-09-05T11:53:54Z</time>
      </trkpt>
      <trkpt lat="45.74494" lon="4.27641">
        <ele>351.02</ele>
        <time>2016-09-05T11:54:05Z</time>
      </trkpt>
      <trkpt lat="45.74484" lon="4.27627">
        <ele>350.54</ele>
        <time>2016-09-05T11:54:16Z</time>
      </trkpt>
      <trkpt lat="45.74476" lon="4.27619">
        <ele>352.94</ele>
        <time>2016-09-05T11:54:30Z</time>
      </trkpt>
      <trkpt lat="45.74476" lon="4.27619">
        <ele>352.94</ele>
        <time>2016-09-05T11:54:50Z</time>
      </trkpt>
      <trkpt lat="45.74475" lon="4.2762">
        <ele>353.42</ele>
        <time>2016-09-05T11:55:13Z</time>
      </trkpt>
      <trkpt lat="45.74475" lon="4.2762">
        <ele>353.42</ele>
        <time>2016-09-05T11:55:40Z</time>
      </trkpt>
      <trkpt lat="45.74475" lon="4.2762">
        <ele>353.42</ele>
        <time>2016-09-05T11:56:00Z</time>
      </trkpt>
      <trkpt lat="45.74476" lon="4.2762">
        <ele>353.9</ele>
        <time>2016-09-05T11:56:18Z</time>
      </trkpt>
      <trkpt lat="45.74476" lon="4.27621">
        <ele>353.42</ele>
        <time>2016-09-05T11:56:40Z</time>
      </trkpt>
      <trkpt lat="45.74475" lon="4.27619">
        <ele>352.46</ele>
        <time>2016-09-05T11:56:58Z</time>
      </trkpt>
      <trkpt lat="45.74474" lon="4.27619">
        <ele>351.5</ele>
        <time>2016-09-05T11:57:19Z</time>
      </trkpt>
      <trkpt lat="45.74474" lon="4.27618">
        <ele>351.5</ele>
        <time>2016-09-05T11:57:33Z</time>
      </trkpt>
      <trkpt lat="45.74475" lon="4.27619">
        <ele>351.02</ele>
        <time>2016-09-05T11:57:56Z</time>
      </trkpt>
      <trkpt lat="45.74475" lon="4.27617">
        <ele>351.02</ele>
        <time>2016-09-05T11:58:14Z</time>
      </trkpt>
      <trkpt lat="45.74469" lon="4.27608">
        <ele>349.1</ele>
        <time>2016-09-05T11:58:28Z</time>
      </trkpt>
      <trkpt lat="45.74465" lon="4.27599">
        <ele>349.58</ele>
        <time>2016-09-05T11:58:40Z</time>
      </trkpt>
      <trkpt lat="45.74462" lon="4.27596">
        <ele>350.06</ele>
        <time>2016-09-05T11:58:57Z</time>
      </trkpt>
      <trkpt lat="45.74462" lon="4.27596">
        <ele>350.06</ele>
        <time>2016-09-05T11:58:58Z</time>
      </trkpt>
      <trkpt lat="45.74457" lon="4.27597">
        <ele>349.58</ele>
        <time>2016-09-05T11:59:10Z</time>
      </trkpt>
      <trkpt lat="45.74454" lon="4.27596">
        <ele>350.54</ele>
        <time>2016-09-05T11:59:23Z</time>
      </trkpt>
      <trkpt lat="45.74445" lon="4.27594">
        <ele>350.54</ele>
        <time>2016-09-05T11:59:31Z</time>
      </trkpt>
      <trkpt lat="45.74436" lon="4.27601">
        <ele>350.06</ele>
        <time>2016-09-05T11:59:42Z</time>
      </trkpt>
      <trkpt lat="45.74424" lon="4.27612">
        <ele>349.58</ele>
        <time>2016-09-05T11:59:55Z</time>
      </trkpt>
      <trkpt lat="45.74418" lon="4.27612">
        <ele>349.58</ele>
        <time>2016-09-05T12:00:02Z</time>
      </trkpt>
      <trkpt lat="45.74407" lon="4.27596">
        <ele>348.13</ele>
        <time>2016-09-05T12:00:16Z</time>
      </trkpt>
      <trkpt lat="45.744" lon="4.27575">
        <ele>348.13</ele>
        <time>2016-09-05T12:00:30Z</time>
      </trkpt>
      <trkpt lat="45.74391" lon="4.27554">
        <ele>350.06</ele>
        <time>2016-09-05T12:00:44Z</time>
      </trkpt>
      <trkpt lat="45.74383" lon="4.27536">
        <ele>351.02</ele>
        <time>2016-09-05T12:00:56Z</time>
      </trkpt>
      <trkpt lat="45.74364" lon="4.27518">
        <ele>351.98</ele>
        <time>2016-09-05T12:01:13Z</time>
      </trkpt>
      <trkpt lat="45.74351" lon="4.27505">
        <ele>352.46</ele>
        <time>2016-09-05T12:01:25Z</time>
      </trkpt>
      <trkpt lat="45.74351" lon="4.27504">
        <ele>351.98</ele>
        <time>2016-09-05T12:01:26Z</time>
      </trkpt>
      <trkpt lat="45.7435" lon="4.27483">
        <ele>349.58</ele>
        <time>2016-09-05T12:01:37Z</time>
      </trkpt>
      <trkpt lat="45.74349" lon="4.27472">
        <ele>350.54</ele>
        <time>2016-09-05T12:01:42Z</time>
      </trkpt>
      <trkpt lat="45.74349" lon="4.27443">
        <ele>351.02</ele>
        <time>2016-09-05T12:01:58Z</time>
      </trkpt>
      <trkpt lat="45.7435" lon="4.27411">
        <ele>351.5</ele>
        <time>2016-09-05T12:02:16Z</time>
      </trkpt>
      <trkpt lat="45.74348" lon="4.27382">
        <ele>351.98</ele>
        <time>2016-09-05T12:02:31Z</time>
      </trkpt>
      <trkpt lat="45.74347" lon="4.2736">
        <ele>351.98</ele>
        <time>2016-09-05T12:02:43Z</time>
      </trkpt>
      <trkpt lat="45.74346" lon="4.27349">
        <ele>351.98</ele>
        <time>2016-09-05T12:02:49Z</time>
      </trkpt>
      <trkpt lat="45.74346" lon="4.27321">
        <ele>351.98</ele>
        <time>2016-09-05T12:03:02Z</time>
      </trkpt>
      <trkpt lat="45.7434" lon="4.27302">
        <ele>350.54</ele>
        <time>2016-09-05T12:03:14Z</time>
      </trkpt>
      <trkpt lat="45.74337" lon="4.27277">
        <ele>351.02</ele>
        <time>2016-09-05T12:03:27Z</time>
      </trkpt>
      <trkpt lat="45.74335" lon="4.27268">
        <ele>351.5</ele>
        <time>2016-09-05T12:03:33Z</time>
      </trkpt>
      <trkpt lat="45.74328" lon="4.27249">
        <ele>350.54</ele>
        <time>2016-09-05T12:03:44Z</time>
      </trkpt>
      <trkpt lat="45.74319" lon="4.27228">
        <ele>348.62</ele>
        <time>2016-09-05T12:03:56Z</time>
      </trkpt>
      <trkpt lat="45.74311" lon="4.27211">
        <ele>348.13</ele>
        <time>2016-09-05T12:04:07Z</time>
      </trkpt>
      <trkpt lat="45.74302" lon="4.2719">
        <ele>348.13</ele>
        <time>2016-09-05T12:04:21Z</time>
      </trkpt>
      <trkpt lat="45.74291" lon="4.27168">
        <ele>350.54</ele>
        <time>2016-09-05T12:04:35Z</time>
      </trkpt>
      <trkpt lat="45.74282" lon="4.27146">
        <ele>350.54</ele>
        <time>2016-09-05T12:04:47Z</time>
      </trkpt>
      <trkpt lat="45.74274" lon="4.27132">
        <ele>350.54</ele>
        <time>2016-09-05T12:04:58Z</time>
      </trkpt>
      <trkpt lat="45.74269" lon="4.2712">
        <ele>349.58</ele>
        <time>2016-09-05T12:05:05Z</time>
      </trkpt>
      <trkpt lat="45.74267" lon="4.27111">
        <ele>350.06</ele>
        <time>2016-09-05T12:05:18Z</time>
      </trkpt>
      <trkpt lat="45.74268" lon="4.27111">
        <ele>350.54</ele>
        <time>2016-09-05T12:05:30Z</time>
      </trkpt>
      <trkpt lat="45.74277" lon="4.27096">
        <ele>351.5</ele>
        <time>2016-09-05T12:05:42Z</time>
      </trkpt>
      <trkpt lat="45.7428" lon="4.27079">
        <ele>352.94</ele>
        <time>2016-09-05T12:05:53Z</time>
      </trkpt>
      <trkpt lat="45.74289" lon="4.27064">
        <ele>352.46</ele>
        <time>2016-09-05T12:06:05Z</time>
      </trkpt>
      <trkpt lat="45.74299" lon="4.27052">
        <ele>353.9</ele>
        <time>2016-09-05T12:06:16Z</time>
      </trkpt>
      <trkpt lat="45.74304" lon="4.27047">
        <ele>355.34</ele>
        <time>2016-09-05T12:06:25Z</time>
      </trkpt>
      <trkpt lat="45.74308" lon="4.27043">
        <ele>355.83</ele>
        <time>2016-09-05T12:06:30Z</time>
      </trkpt>
      <trkpt lat="45.7432" lon="4.27031">
        <ele>357.75</ele>
        <time>2016-09-05T12:06:42Z</time>
      </trkpt>
      <trkpt lat="45.74326" lon="4.27016">
        <ele>357.75</ele>
        <time>2016-09-05T12:06:52Z</time>
      </trkpt>
      <trkpt lat="45.74331" lon="4.27001">
        <ele>358.23</ele>
        <time>2016-09-05T12:07:02Z</time>
      </trkpt>
      <trkpt lat="45.7434" lon="4.26981">
        <ele>359.19</ele>
        <time>2016-09-05T12:07:15Z</time>
      </trkpt>
      <trkpt lat="45.74345" lon="4.26962">
        <ele>360.15</ele>
        <time>2016-09-05T12:07:27Z</time>
      </trkpt>
      <trkpt lat="45.74347" lon="4.2696">
        <ele>360.15</ele>
        <time>2016-09-05T12:07:33Z</time>
      </trkpt>
      <trkpt lat="45.74354" lon="4.2694">
        <ele>358.23</ele>
        <time>2016-09-05T12:07:48Z</time>
      </trkpt>
      <trkpt lat="45.74363" lon="4.26917">
        <ele>355.83</ele>
        <time>2016-09-05T12:08:02Z</time>
      </trkpt>
      <trkpt lat="45.74369" lon="4.269">
        <ele>356.31</ele>
        <time>2016-09-05T12:08:16Z</time>
      </trkpt>
      <trkpt lat="45.74371" lon="4.26899">
        <ele>356.31</ele>
        <time>2016-09-05T12:08:18Z</time>
      </trkpt>
      <trkpt lat="45.74372" lon="4.26896">
        <ele>356.79</ele>
        <time>2016-09-05T12:08:20Z</time>
      </trkpt>
      <trkpt lat="45.74375" lon="4.26888">
        <ele>356.79</ele>
        <time>2016-09-05T12:08:25Z</time>
      </trkpt>
      <trkpt lat="45.74379" lon="4.26879">
        <ele>357.75</ele>
        <time>2016-09-05T12:08:31Z</time>
      </trkpt>
      <trkpt lat="45.74385" lon="4.2687">
        <ele>358.23</ele>
        <time>2016-09-05T12:08:39Z</time>
      </trkpt>
      <trkpt lat="45.74397" lon="4.26848">
        <ele>360.63</ele>
        <time>2016-09-05T12:08:50Z</time>
      </trkpt>
      <trkpt lat="45.74407" lon="4.26831">
        <ele>360.63</ele>
        <time>2016-09-05T12:09:02Z</time>
      </trkpt>
      <trkpt lat="45.74415" lon="4.26818">
        <ele>360.15</ele>
        <time>2016-09-05T12:09:12Z</time>
      </trkpt>
      <trkpt lat="45.74428" lon="4.26801">
        <ele>359.19</ele>
        <time>2016-09-05T12:09:27Z</time>
      </trkpt>
      <trkpt lat="45.74432" lon="4.26794">
        <ele>358.71</ele>
        <time>2016-09-05T12:09:33Z</time>
      </trkpt>
      <trkpt lat="45.74438" lon="4.26782">
        <ele>356.31</ele>
        <time>2016-09-05T12:09:42Z</time>
      </trkpt>
      <trkpt lat="45.74448" lon="4.26765">
        <ele>355.83</ele>
        <time>2016-09-05T12:09:56Z</time>
      </trkpt>
      <trkpt lat="45.74458" lon="4.26752">
        <ele>355.83</ele>
        <time>2016-09-05T12:10:08Z</time>
      </trkpt>
      <trkpt lat="45.74467" lon="4.26739">
        <ele>355.34</ele>
        <time>2016-09-05T12:10:20Z</time>
      </trkpt>
      <trkpt lat="45.74478" lon="4.26716">
        <ele>354.86</ele>
        <time>2016-09-05T12:10:33Z</time>
      </trkpt>
      <trkpt lat="45.74488" lon="4.26694">
        <ele>354.38</ele>
        <time>2016-09-05T12:10:46Z</time>
      </trkpt>
      <trkpt lat="45.74494" lon="4.2668">
        <ele>354.38</ele>
        <time>2016-09-05T12:10:56Z</time>
      </trkpt>
      <trkpt lat="45.74495" lon="4.26676">
        <ele>354.38</ele>
        <time>2016-09-05T12:10:58Z</time>
      </trkpt>
      <trkpt lat="45.74499" lon="4.26669">
        <ele>354.86</ele>
        <time>2016-09-05T12:11:04Z</time>
      </trkpt>
      <trkpt lat="45.74502" lon="4.26661">
        <ele>355.34</ele>
        <time>2016-09-05T12:11:09Z</time>
      </trkpt>
      <trkpt lat="45.74504" lon="4.26654">
        <ele>355.83</ele>
        <time>2016-09-05T12:11:12Z</time>
      </trkpt>
      <trkpt lat="45.74508" lon="4.26643">
        <ele>355.34</ele>
        <time>2016-09-05T12:11:18Z</time>
      </trkpt>
      <trkpt lat="45.74507" lon="4.26623">
        <ele>356.31</ele>
        <time>2016-09-05T12:11:28Z</time>
      </trkpt>
      <trkpt lat="45.74506" lon="4.26604">
        <ele>357.75</ele>
        <time>2016-09-05T12:11:39Z</time>
      </trkpt>
      <trkpt lat="45.74503" lon="4.26583">
        <ele>360.15</ele>
        <time>2016-09-05T12:11:52Z</time>
      </trkpt>
      <trkpt lat="45.745" lon="4.26566">
        <ele>358.71</ele>
        <time>2016-09-05T12:12:04Z</time>
      </trkpt>
      <trkpt lat="45.74497" lon="4.26543">
        <ele>357.75</ele>
        <time>2016-09-05T12:12:17Z</time>
      </trkpt>
      <trkpt lat="45.74497" lon="4.26541">
        <ele>357.75</ele>
        <time>2016-09-05T12:12:18Z</time>
      </trkpt>
      <trkpt lat="45.74493" lon="4.26519">
        <ele>356.31</ele>
        <time>2016-09-05T12:12:30Z</time>
      </trkpt>
      <trkpt lat="45.74492" lon="4.26502">
        <ele>355.83</ele>
        <time>2016-09-05T12:12:41Z</time>
      </trkpt>
      <trkpt lat="45.74491" lon="4.26483">
        <ele>354.86</ele>
        <time>2016-09-05T12:12:53Z</time>
      </trkpt>
      <trkpt lat="45.74493" lon="4.26461">
        <ele>355.34</ele>
        <time>2016-09-05T12:13:07Z</time>
      </trkpt>
      <trkpt lat="45.74493" lon="4.26448">
        <ele>355.34</ele>
        <time>2016-09-05T12:13:14Z</time>
      </trkpt>
      <trkpt lat="45.7449" lon="4.2643">
        <ele>355.34</ele>
        <time>2016-09-05T12:13:26Z</time>
      </trkpt>
      <trkpt lat="45.74493" lon="4.26422">
        <ele>356.31</ele>
        <time>2016-09-05T12:13:32Z</time>
      </trkpt>
      <trkpt lat="45.74495" lon="4.26399">
        <ele>354.86</ele>
        <time>2016-09-05T12:13:44Z</time>
      </trkpt>
      <trkpt lat="45.74496" lon="4.26397">
        <ele>354.86</ele>
        <time>2016-09-05T12:13:46Z</time>
      </trkpt>
      <trkpt lat="45.74499" lon="4.26385">
        <ele>353.9</ele>
        <time>2016-09-05T12:13:52Z</time>
      </trkpt>
      <trkpt lat="45.74499" lon="4.26371">
        <ele>352.94</ele>
        <time>2016-09-05T12:14:00Z</time>
      </trkpt>
      <trkpt lat="45.745" lon="4.26364">
        <ele>352.46</ele>
        <time>2016-09-05T12:14:04Z</time>
      </trkpt>
      <trkpt lat="45.74502" lon="4.26358">
        <ele>351.5</ele>
        <time>2016-09-05T12:14:09Z</time>
      </trkpt>
      <trkpt lat="45.74503" lon="4.26351">
        <ele>351.02</ele>
        <time>2016-09-05T12:14:13Z</time>
      </trkpt>
      <trkpt lat="45.74503" lon="4.26347">
        <ele>351.5</ele>
        <time>2016-09-05T12:14:15Z</time>
      </trkpt>
      <trkpt lat="45.74503" lon="4.2633">
        <ele>351.5</ele>
        <time>2016-09-05T12:14:25Z</time>
      </trkpt>
      <trkpt lat="45.74502" lon="4.26326">
        <ele>351.98</ele>
        <time>2016-09-05T12:14:38Z</time>
      </trkpt>
      <trkpt lat="45.74497" lon="4.26316">
        <ele>351.98</ele>
        <time>2016-09-05T12:14:45Z</time>
      </trkpt>
      <trkpt lat="45.74497" lon="4.26291">
        <ele>354.38</ele>
        <time>2016-09-05T12:14:56Z</time>
      </trkpt>
      <trkpt lat="45.74496" lon="4.26288">
        <ele>354.38</ele>
        <time>2016-09-05T12:14:58Z</time>
      </trkpt>
      <trkpt lat="45.74494" lon="4.26283">
        <ele>353.9</ele>
        <time>2016-09-05T12:15:01Z</time>
      </trkpt>
      <trkpt lat="45.74492" lon="4.2628">
        <ele>353.42</ele>
        <time>2016-09-05T12:15:04Z</time>
      </trkpt>
      <trkpt lat="45.74484" lon="4.26268">
        <ele>352.46</ele>
        <time>2016-09-05T12:15:17Z</time>
      </trkpt>
      <trkpt lat="45.74482" lon="4.26265">
        <ele>353.9</ele>
        <time>2016-09-05T12:15:30Z</time>
      </trkpt>
      <trkpt lat="45.74479" lon="4.26264">
        <ele>354.38</ele>
        <time>2016-09-05T12:15:47Z</time>
      </trkpt>
      <trkpt lat="45.74477" lon="4.26263">
        <ele>354.38</ele>
        <time>2016-09-05T12:15:58Z</time>
      </trkpt>
      <trkpt lat="45.74468" lon="4.2625">
        <ele>353.42</ele>
        <time>2016-09-05T12:16:09Z</time>
      </trkpt>
      <trkpt lat="45.74456" lon="4.26238">
        <ele>352.94</ele>
        <time>2016-09-05T12:16:20Z</time>
      </trkpt>
      <trkpt lat="45.7445" lon="4.26231">
        <ele>352.94</ele>
        <time>2016-09-05T12:16:31Z</time>
      </trkpt>
      <trkpt lat="45.74442" lon="4.26222">
        <ele>353.9</ele>
        <time>2016-09-05T12:16:39Z</time>
      </trkpt>
      <trkpt lat="45.74425" lon="4.26217">
        <ele>352.94</ele>
        <time>2016-09-05T12:16:52Z</time>
      </trkpt>
      <trkpt lat="45.7441" lon="4.26213">
        <ele>352.46</ele>
        <time>2016-09-05T12:17:04Z</time>
      </trkpt>
      <trkpt lat="45.744" lon="4.26211">
        <ele>351.98</ele>
        <time>2016-09-05T12:17:12Z</time>
      </trkpt>
      <trkpt lat="45.74393" lon="4.26205">
        <ele>352.46</ele>
        <time>2016-09-05T12:17:22Z</time>
      </trkpt>
      <trkpt lat="45.74392" lon="4.26197">
        <ele>351.02</ele>
        <time>2016-09-05T12:17:31Z</time>
      </trkpt>
      <trkpt lat="45.74401" lon="4.2619">
        <ele>351.02</ele>
        <time>2016-09-05T12:17:42Z</time>
      </trkpt>
      <trkpt lat="45.74403" lon="4.26185">
        <ele>351.02</ele>
        <time>2016-09-05T12:17:46Z</time>
      </trkpt>
      <trkpt lat="45.74413" lon="4.26166">
        <ele>354.38</ele>
        <time>2016-09-05T12:17:59Z</time>
      </trkpt>
      <trkpt lat="45.74418" lon="4.26143">
        <ele>352.94</ele>
        <time>2016-09-05T12:18:13Z</time>
      </trkpt>
      <trkpt lat="45.74424" lon="4.26124">
        <ele>351.98</ele>
        <time>2016-09-05T12:18:28Z</time>
      </trkpt>
      <trkpt lat="45.74425" lon="4.26122">
        <ele>351.98</ele>
        <time>2016-09-05T12:18:29Z</time>
      </trkpt>
      <trkpt lat="45.74436" lon="4.26104">
        <ele>353.42</ele>
        <time>2016-09-05T12:18:45Z</time>
      </trkpt>
      <trkpt lat="45.74441" lon="4.26093">
        <ele>354.86</ele>
        <time>2016-09-05T12:18:52Z</time>
      </trkpt>
      <trkpt lat="45.74449" lon="4.2607">
        <ele>356.79</ele>
        <time>2016-09-05T12:19:04Z</time>
      </trkpt>
      <trkpt lat="45.74451" lon="4.26068">
        <ele>357.27</ele>
        <time>2016-09-05T12:19:07Z</time>
      </trkpt>
      <trkpt lat="45.74457" lon="4.26051">
        <ele>357.27</ele>
        <time>2016-09-05T12:19:16Z</time>
      </trkpt>
      <trkpt lat="45.74459" lon="4.26039">
        <ele>356.31</ele>
        <time>2016-09-05T12:19:24Z</time>
      </trkpt>
      <trkpt lat="45.74463" lon="4.26017">
        <ele>356.79</ele>
        <time>2016-09-05T12:19:37Z</time>
      </trkpt>
      <trkpt lat="45.74464" lon="4.26009">
        <ele>357.27</ele>
        <time>2016-09-05T12:19:41Z</time>
      </trkpt>
      <trkpt lat="45.74468" lon="4.25989">
        <ele>356.79</ele>
        <time>2016-09-05T12:19:53Z</time>
      </trkpt>
      <trkpt lat="45.74469" lon="4.25962">
        <ele>356.31</ele>
        <time>2016-09-05T12:20:08Z</time>
      </trkpt>
      <trkpt lat="45.74471" lon="4.25937">
        <ele>355.34</ele>
        <time>2016-09-05T12:20:23Z</time>
      </trkpt>
      <trkpt lat="45.74476" lon="4.25918">
        <ele>357.27</ele>
        <time>2016-09-05T12:20:34Z</time>
      </trkpt>
      <trkpt lat="45.74485" lon="4.25897">
        <ele>358.71</ele>
        <time>2016-09-05T12:20:48Z</time>
      </trkpt>
      <trkpt lat="45.74493" lon="4.25877">
        <ele>357.75</ele>
        <time>2016-09-05T12:20:59Z</time>
      </trkpt>
      <trkpt lat="45.74496" lon="4.25869">
        <ele>357.27</ele>
        <time>2016-09-05T12:21:06Z</time>
      </trkpt>
      <trkpt lat="45.74509" lon="4.25849">
        <ele>357.75</ele>
        <time>2016-09-05T12:21:20Z</time>
      </trkpt>
      <trkpt lat="45.74509" lon="4.25843">
        <ele>357.75</ele>
        <time>2016-09-05T12:21:22Z</time>
      </trkpt>
      <trkpt lat="45.74516" lon="4.25831">
        <ele>357.75</ele>
        <time>2016-09-05T12:21:30Z</time>
      </trkpt>
      <trkpt lat="45.74521" lon="4.25801">
        <ele>355.34</ele>
        <time>2016-09-05T12:21:44Z</time>
      </trkpt>
      <trkpt lat="45.74522" lon="4.25797">
        <ele>354.86</ele>
        <time>2016-09-05T12:21:47Z</time>
      </trkpt>
      <trkpt lat="45.74528" lon="4.25777">
        <ele>352.94</ele>
        <time>2016-09-05T12:21:59Z</time>
      </trkpt>
      <trkpt lat="45.7453" lon="4.2577">
        <ele>352.94</ele>
        <time>2016-09-05T12:22:02Z</time>
      </trkpt>
      <trkpt lat="45.74532" lon="4.25765">
        <ele>352.94</ele>
        <time>2016-09-05T12:22:04Z</time>
      </trkpt>
      <trkpt lat="45.74535" lon="4.2574">
        <ele>350.06</ele>
        <time>2016-09-05T12:22:18Z</time>
      </trkpt>
      <trkpt lat="45.74542" lon="4.2572">
        <ele>351.5</ele>
        <time>2016-09-05T12:22:33Z</time>
      </trkpt>
      <trkpt lat="45.74543" lon="4.2572">
        <ele>351.5</ele>
        <time>2016-09-05T12:22:34Z</time>
      </trkpt>
      <trkpt lat="45.74546" lon="4.25716">
        <ele>351.98</ele>
        <time>2016-09-05T12:22:39Z</time>
      </trkpt>
      <trkpt lat="45.74559" lon="4.25689">
        <ele>351.98</ele>
        <time>2016-09-05T12:22:53Z</time>
      </trkpt>
      <trkpt lat="45.74564" lon="4.25674">
        <ele>351.5</ele>
        <time>2016-09-05T12:23:01Z</time>
      </trkpt>
      <trkpt lat="45.7457" lon="4.25659">
        <ele>351.98</ele>
        <time>2016-09-05T12:23:11Z</time>
      </trkpt>
      <trkpt lat="45.74575" lon="4.2565">
        <ele>352.46</ele>
        <time>2016-09-05T12:23:15Z</time>
      </trkpt>
      <trkpt lat="45.74582" lon="4.2562">
        <ele>354.38</ele>
        <time>2016-09-05T12:23:30Z</time>
      </trkpt>
      <trkpt lat="45.74582" lon="4.25595">
        <ele>358.23</ele>
        <time>2016-09-05T12:23:43Z</time>
      </trkpt>
      <trkpt lat="45.74582" lon="4.25593">
        <ele>358.71</ele>
        <time>2016-09-05T12:23:45Z</time>
      </trkpt>
      <trkpt lat="45.74582" lon="4.25586">
        <ele>359.19</ele>
        <time>2016-09-05T12:23:51Z</time>
      </trkpt>
      <trkpt lat="45.74575" lon="4.25572">
        <ele>356.31</ele>
        <time>2016-09-05T12:24:06Z</time>
      </trkpt>
      <trkpt lat="45.74577" lon="4.2557">
        <ele>354.38</ele>
        <time>2016-09-05T12:24:12Z</time>
      </trkpt>
      <trkpt lat="45.74583" lon="4.25561">
        <ele>352.46</ele>
        <time>2016-09-05T12:24:23Z</time>
      </trkpt>
      <trkpt lat="45.74585" lon="4.25558">
        <ele>351.5</ele>
        <time>2016-09-05T12:24:41Z</time>
      </trkpt>
      <trkpt lat="45.74585" lon="4.25557">
        <ele>351.02</ele>
        <time>2016-09-05T12:24:58Z</time>
      </trkpt>
      <trkpt lat="45.74585" lon="4.25555">
        <ele>351.02</ele>
        <time>2016-09-05T12:25:21Z</time>
      </trkpt>
      <trkpt lat="45.74585" lon="4.25554">
        <ele>351.02</ele>
        <time>2016-09-05T12:25:37Z</time>
      </trkpt>
      <trkpt lat="45.74586" lon="4.25555">
        <ele>351.02</ele>
        <time>2016-09-05T12:25:59Z</time>
      </trkpt>
      <trkpt lat="45.74591" lon="4.25555">
        <ele>350.06</ele>
        <time>2016-09-05T12:26:15Z</time>
      </trkpt>
      <trkpt lat="45.74595" lon="4.25555">
        <ele>349.58</ele>
        <time>2016-09-05T12:26:30Z</time>
      </trkpt>
      <trkpt lat="45.74596" lon="4.25556">
        <ele>349.1</ele>
        <time>2016-09-05T12:26:38Z</time>
      </trkpt>
      <trkpt lat="45.74599" lon="4.25564">
        <ele>348.62</ele>
        <time>2016-09-05T12:26:44Z</time>
      </trkpt>
      <trkpt lat="45.74604" lon="4.25572">
        <ele>347.65</ele>
        <time>2016-09-05T12:26:58Z</time>
      </trkpt>
      <trkpt lat="45.74609" lon="4.25577">
        <ele>346.69</ele>
        <time>2016-09-05T12:27:05Z</time>
      </trkpt>
      <trkpt lat="45.74616" lon="4.25575">
        <ele>345.73</ele>
        <time>2016-09-05T12:27:16Z</time>
      </trkpt>
      <trkpt lat="45.74618" lon="4.25576">
        <ele>345.25</ele>
        <time>2016-09-05T12:27:25Z</time>
      </trkpt>
      <trkpt lat="45.74617" lon="4.25556">
        <ele>342.37</ele>
        <time>2016-09-05T12:27:36Z</time>
      </trkpt>
      <trkpt lat="45.74617" lon="4.25554">
        <ele>341.89</ele>
        <time>2016-09-05T12:27:37Z</time>
      </trkpt>
      <trkpt lat="45.74618" lon="4.2553">
        <ele>339</ele>
        <time>2016-09-05T12:27:49Z</time>
      </trkpt>
      <trkpt lat="45.74619" lon="4.25527">
        <ele>339</ele>
        <time>2016-09-05T12:27:51Z</time>
      </trkpt>
      <trkpt lat="45.74619" lon="4.25505">
        <ele>339.48</ele>
        <time>2016-09-05T12:28:03Z</time>
      </trkpt>
      <trkpt lat="45.74619" lon="4.25503">
        <ele>339.48</ele>
        <time>2016-09-05T12:28:05Z</time>
      </trkpt>
      <trkpt lat="45.74617" lon="4.25481">
        <ele>340.44</ele>
        <time>2016-09-05T12:28:16Z</time>
      </trkpt>
      <trkpt lat="45.74618" lon="4.25464">
        <ele>341.89</ele>
        <time>2016-09-05T12:28:25Z</time>
      </trkpt>
      <trkpt lat="45.7462" lon="4.25451">
        <ele>341.89</ele>
        <time>2016-09-05T12:28:33Z</time>
      </trkpt>
      <trkpt lat="45.74621" lon="4.25435">
        <ele>341.41</ele>
        <time>2016-09-05T12:28:42Z</time>
      </trkpt>
      <trkpt lat="45.74621" lon="4.25428">
        <ele>341.89</ele>
        <time>2016-09-05T12:28:46Z</time>
      </trkpt>
      <trkpt lat="45.74619" lon="4.25408">
        <ele>340.44</ele>
        <time>2016-09-05T12:28:57Z</time>
      </trkpt>
      <trkpt lat="45.74613" lon="4.25388">
        <ele>340.44</ele>
        <time>2016-09-05T12:29:07Z</time>
      </trkpt>
      <trkpt lat="45.74607" lon="4.25375">
        <ele>339.96</ele>
        <time>2016-09-05T12:29:17Z</time>
      </trkpt>
      <trkpt lat="45.74601" lon="4.25357">
        <ele>340.92</ele>
        <time>2016-09-05T12:29:28Z</time>
      </trkpt>
      <trkpt lat="45.74598" lon="4.25353">
        <ele>340.92</ele>
        <time>2016-09-05T12:29:32Z</time>
      </trkpt>
      <trkpt lat="45.74594" lon="4.25337">
        <ele>339.48</ele>
        <time>2016-09-05T12:29:43Z</time>
      </trkpt>
      <trkpt lat="45.74594" lon="4.25328">
        <ele>339</ele>
        <time>2016-09-05T12:29:48Z</time>
      </trkpt>
      <trkpt lat="45.74593" lon="4.25315">
        <ele>339</ele>
        <time>2016-09-05T12:29:55Z</time>
      </trkpt>
      <trkpt lat="45.74593" lon="4.25309">
        <ele>338.52</ele>
        <time>2016-09-05T12:29:59Z</time>
      </trkpt>
      <trkpt lat="45.7459" lon="4.25292">
        <ele>339</ele>
        <time>2016-09-05T12:30:10Z</time>
      </trkpt>
      <trkpt lat="45.7459" lon="4.2529">
        <ele>339</ele>
        <time>2016-09-05T12:30:11Z</time>
      </trkpt>
      <trkpt lat="45.7459" lon="4.25283">
        <ele>339.48</ele>
        <time>2016-09-05T12:30:16Z</time>
      </trkpt>
      <trkpt lat="45.74591" lon="4.25264">
        <ele>340.92</ele>
        <time>2016-09-05T12:30:27Z</time>
      </trkpt>
      <trkpt lat="45.74592" lon="4.2526">
        <ele>341.41</ele>
        <time>2016-09-05T12:30:30Z</time>
      </trkpt>
      <trkpt lat="45.74594" lon="4.25243">
        <ele>343.33</ele>
        <time>2016-09-05T12:30:41Z</time>
      </trkpt>
      <trkpt lat="45.74597" lon="4.25224">
        <ele>345.73</ele>
        <time>2016-09-05T12:30:52Z</time>
      </trkpt>
      <trkpt lat="45.74596" lon="4.25223">
        <ele>345.73</ele>
        <time>2016-09-05T12:30:53Z</time>
      </trkpt>
      <trkpt lat="45.74595" lon="4.25221">
        <ele>345.73</ele>
        <time>2016-09-05T12:30:55Z</time>
      </trkpt>
      <trkpt lat="45.74595" lon="4.25204">
        <ele>348.13</ele>
        <time>2016-09-05T12:31:05Z</time>
      </trkpt>
      <trkpt lat="45.74595" lon="4.25198">
        <ele>349.1</ele>
        <time>2016-09-05T12:31:09Z</time>
      </trkpt>
      <trkpt lat="45.74597" lon="4.2519">
        <ele>350.06</ele>
        <time>2016-09-05T12:31:14Z</time>
      </trkpt>
      <trkpt lat="45.74599" lon="4.25178">
        <ele>351.02</ele>
        <time>2016-09-05T12:31:21Z</time>
      </trkpt>
      <trkpt lat="45.74604" lon="4.25157">
        <ele>351.5</ele>
        <time>2016-09-05T12:31:33Z</time>
      </trkpt>
      <trkpt lat="45.74611" lon="4.25137">
        <ele>352.46</ele>
        <time>2016-09-05T12:31:45Z</time>
      </trkpt>
      <trkpt lat="45.74613" lon="4.25121">
        <ele>352.46</ele>
        <time>2016-09-05T12:31:55Z</time>
      </trkpt>
      <trkpt lat="45.74617" lon="4.251">
        <ele>355.34</ele>
        <time>2016-09-05T12:32:06Z</time>
      </trkpt>
      <trkpt lat="45.74621" lon="4.25084">
        <ele>354.38</ele>
        <time>2016-09-05T12:32:16Z</time>
      </trkpt>
      <trkpt lat="45.74628" lon="4.25062">
        <ele>345.73</ele>
        <time>2016-09-05T12:32:28Z</time>
      </trkpt>
      <trkpt lat="45.74631" lon="4.25051">
        <ele>344.29</ele>
        <time>2016-09-05T12:32:36Z</time>
      </trkpt>
      <trkpt lat="45.74635" lon="4.25044">
        <ele>342.37</ele>
        <time>2016-09-05T12:32:41Z</time>
      </trkpt>
      <trkpt lat="45.74637" lon="4.2504">
        <ele>341.41</ele>
        <time>2016-09-05T12:32:55Z</time>
      </trkpt>
      <trkpt lat="45.74635" lon="4.25036">
        <ele>340.44</ele>
        <time>2016-09-05T12:33:06Z</time>
      </trkpt>
      <trkpt lat="45.74636" lon="4.25026">
        <ele>339.96</ele>
        <time>2016-09-05T12:33:23Z</time>
      </trkpt>
      <trkpt lat="45.74639" lon="4.25019">
        <ele>338.52</ele>
        <time>2016-09-05T12:33:32Z</time>
      </trkpt>
      <trkpt lat="45.74636" lon="4.2501">
        <ele>338.52</ele>
        <time>2016-09-05T12:33:46Z</time>
      </trkpt>
      <trkpt lat="45.74636" lon="4.25009">
        <ele>339</ele>
        <time>2016-09-05T12:34:10Z</time>
      </trkpt>
      <trkpt lat="45.74635" lon="4.25008">
        <ele>339.48</ele>
        <time>2016-09-05T12:34:21Z</time>
      </trkpt>
      <trkpt lat="45.74631" lon="4.25003">
        <ele>339.48</ele>
        <time>2016-09-05T12:34:26Z</time>
      </trkpt>
      <trkpt lat="45.74618" lon="4.24993">
        <ele>339</ele>
        <time>2016-09-05T12:34:40Z</time>
      </trkpt>
      <trkpt lat="45.74606" lon="4.24977">
        <ele>340.92</ele>
        <time>2016-09-05T12:34:53Z</time>
      </trkpt>
      <trkpt lat="45.74598" lon="4.24963">
        <ele>341.41</ele>
        <time>2016-09-05T12:35:04Z</time>
      </trkpt>
      <trkpt lat="45.74594" lon="4.2496">
        <ele>341.41</ele>
        <time>2016-09-05T12:35:08Z</time>
      </trkpt>
      <trkpt lat="45.74592" lon="4.24955">
        <ele>341.89</ele>
        <time>2016-09-05T12:35:12Z</time>
      </trkpt>
      <trkpt lat="45.7458" lon="4.24942">
        <ele>344.29</ele>
        <time>2016-09-05T12:35:25Z</time>
      </trkpt>
      <trkpt lat="45.7457" lon="4.2493">
        <ele>345.25</ele>
        <time>2016-09-05T12:35:37Z</time>
      </trkpt>
      <trkpt lat="45.74564" lon="4.24921">
        <ele>346.21</ele>
        <time>2016-09-05T12:35:46Z</time>
      </trkpt>
      <trkpt lat="45.74554" lon="4.24909">
        <ele>346.69</ele>
        <time>2016-09-05T12:35:58Z</time>
      </trkpt>
      <trkpt lat="45.74546" lon="4.24896">
        <ele>346.69</ele>
        <time>2016-09-05T12:36:08Z</time>
      </trkpt>
      <trkpt lat="45.74541" lon="4.24883">
        <ele>348.62</ele>
        <time>2016-09-05T12:36:18Z</time>
      </trkpt>
      <trkpt lat="45.74535" lon="4.24864">
        <ele>349.1</ele>
        <time>2016-09-05T12:36:30Z</time>
      </trkpt>
      <trkpt lat="45.74528" lon="4.24848">
        <ele>348.62</ele>
        <time>2016-09-05T12:36:41Z</time>
      </trkpt>
      <trkpt lat="45.74523" lon="4.24831">
        <ele>348.62</ele>
        <time>2016-09-05T12:36:52Z</time>
      </trkpt>
      <trkpt lat="45.74518" lon="4.24819">
        <ele>348.62</ele>
        <time>2016-09-05T12:37:00Z</time>
      </trkpt>
      <trkpt lat="45.74514" lon="4.24809">
        <ele>349.1</ele>
        <time>2016-09-05T12:37:06Z</time>
      </trkpt>
      <trkpt lat="45.7451" lon="4.24795">
        <ele>350.06</ele>
        <time>2016-09-05T12:37:15Z</time>
      </trkpt>
      <trkpt lat="45.74507" lon="4.24775">
        <ele>351.5</ele>
        <time>2016-09-05T12:37:26Z</time>
      </trkpt>
      <trkpt lat="45.74504" lon="4.24757">
        <ele>351.02</ele>
        <time>2016-09-05T12:37:36Z</time>
      </trkpt>
      <trkpt lat="45.74498" lon="4.24734">
        <ele>351.02</ele>
        <time>2016-09-05T12:37:50Z</time>
      </trkpt>
      <trkpt lat="45.74498" lon="4.24732">
        <ele>350.54</ele>
        <time>2016-09-05T12:37:51Z</time>
      </trkpt>
      <trkpt lat="45.74494" lon="4.24707">
        <ele>349.58</ele>
        <time>2016-09-05T12:38:04Z</time>
      </trkpt>
      <trkpt lat="45.74491" lon="4.24685">
        <ele>350.06</ele>
        <time>2016-09-05T12:38:16Z</time>
      </trkpt>
      <trkpt lat="45.74486" lon="4.24665">
        <ele>351.02</ele>
        <time>2016-09-05T12:38:27Z</time>
      </trkpt>
      <trkpt lat="45.74483" lon="4.24645">
        <ele>352.46</ele>
        <time>2016-09-05T12:38:38Z</time>
      </trkpt>
      <trkpt lat="45.74478" lon="4.24625">
        <ele>353.42</ele>
        <time>2016-09-05T12:38:49Z</time>
      </trkpt>
      <trkpt lat="45.74476" lon="4.24607">
        <ele>351.5</ele>
        <time>2016-09-05T12:39:01Z</time>
      </trkpt>
      <trkpt lat="45.74471" lon="4.24587">
        <ele>351.5</ele>
        <time>2016-09-05T12:39:12Z</time>
      </trkpt>
      <trkpt lat="45.74468" lon="4.2457">
        <ele>351.02</ele>
        <time>2016-09-05T12:39:23Z</time>
      </trkpt>
      <trkpt lat="45.74464" lon="4.24548">
        <ele>351.98</ele>
        <time>2016-09-05T12:39:35Z</time>
      </trkpt>
      <trkpt lat="45.7446" lon="4.24529">
        <ele>352.46</ele>
        <time>2016-09-05T12:39:47Z</time>
      </trkpt>
      <trkpt lat="45.74456" lon="4.24508">
        <ele>352.94</ele>
        <time>2016-09-05T12:39:58Z</time>
      </trkpt>
      <trkpt lat="45.74453" lon="4.24486">
        <ele>352.94</ele>
        <time>2016-09-05T12:40:09Z</time>
      </trkpt>
      <trkpt lat="45.7445" lon="4.24468">
        <ele>353.42</ele>
        <time>2016-09-05T12:40:20Z</time>
      </trkpt>
      <trkpt lat="45.74445" lon="4.24446">
        <ele>353.42</ele>
        <time>2016-09-05T12:40:33Z</time>
      </trkpt>
      <trkpt lat="45.74442" lon="4.24427">
        <ele>352.94</ele>
        <time>2016-09-05T12:40:44Z</time>
      </trkpt>
      <trkpt lat="45.74439" lon="4.2441">
        <ele>352.94</ele>
        <time>2016-09-05T12:40:54Z</time>
      </trkpt>
      <trkpt lat="45.74435" lon="4.24389">
        <ele>351.98</ele>
        <time>2016-09-05T12:41:05Z</time>
      </trkpt>
      <trkpt lat="45.74432" lon="4.24368">
        <ele>351.5</ele>
        <time>2016-09-05T12:41:16Z</time>
      </trkpt>
      <trkpt lat="45.74429" lon="4.24351">
        <ele>351.02</ele>
        <time>2016-09-05T12:41:26Z</time>
      </trkpt>
      <trkpt lat="45.74426" lon="4.24333">
        <ele>350.06</ele>
        <time>2016-09-05T12:41:37Z</time>
      </trkpt>
      <trkpt lat="45.74423" lon="4.24311">
        <ele>349.58</ele>
        <time>2016-09-05T12:41:49Z</time>
      </trkpt>
      <trkpt lat="45.74422" lon="4.24302">
        <ele>349.1</ele>
        <time>2016-09-05T12:41:55Z</time>
      </trkpt>
      <trkpt lat="45.74417" lon="4.24281">
        <ele>349.1</ele>
        <time>2016-09-05T12:42:07Z</time>
      </trkpt>
      <trkpt lat="45.74416" lon="4.24273">
        <ele>348.62</ele>
        <time>2016-09-05T12:42:12Z</time>
      </trkpt>
      <trkpt lat="45.74415" lon="4.24262">
        <ele>348.62</ele>
        <time>2016-09-05T12:42:19Z</time>
      </trkpt>
      <trkpt lat="45.74414" lon="4.24256">
        <ele>349.58</ele>
        <time>2016-09-05T12:42:23Z</time>
      </trkpt>
      <trkpt lat="45.74415" lon="4.24245">
        <ele>350.06</ele>
        <time>2016-09-05T12:42:30Z</time>
      </trkpt>
      <trkpt lat="45.74414" lon="4.24228">
        <ele>349.58</ele>
        <time>2016-09-05T12:42:40Z</time>
      </trkpt>
      <trkpt lat="45.74415" lon="4.2421">
        <ele>348.13</ele>
        <time>2016-09-05T12:42:52Z</time>
      </trkpt>
      <trkpt lat="45.74416" lon="4.24203">
        <ele>347.65</ele>
        <time>2016-09-05T12:43:02Z</time>
      </trkpt>
      <trkpt lat="45.74415" lon="4.24189">
        <ele>346.21</ele>
        <time>2016-09-05T12:43:11Z</time>
      </trkpt>
      <trkpt lat="45.74417" lon="4.24168">
        <ele>345.73</ele>
        <time>2016-09-05T12:43:21Z</time>
      </trkpt>
      <trkpt lat="45.74418" lon="4.24162">
        <ele>345.25</ele>
        <time>2016-09-05T12:43:24Z</time>
      </trkpt>
      <trkpt lat="45.7442" lon="4.24141">
        <ele>345.73</ele>
        <time>2016-09-05T12:43:35Z</time>
      </trkpt>
      <trkpt lat="45.7442" lon="4.24119">
        <ele>346.21</ele>
        <time>2016-09-05T12:43:46Z</time>
      </trkpt>
      <trkpt lat="45.74422" lon="4.24095">
        <ele>346.69</ele>
        <time>2016-09-05T12:43:58Z</time>
      </trkpt>
      <trkpt lat="45.74425" lon="4.24075">
        <ele>347.17</ele>
        <time>2016-09-05T12:44:09Z</time>
      </trkpt>
      <trkpt lat="45.74426" lon="4.24054">
        <ele>347.17</ele>
        <time>2016-09-05T12:44:21Z</time>
      </trkpt>
      <trkpt lat="45.74427" lon="4.24033">
        <ele>347.17</ele>
        <time>2016-09-05T12:44:33Z</time>
      </trkpt>
      <trkpt lat="45.74429" lon="4.24012">
        <ele>347.65</ele>
        <time>2016-09-05T12:44:44Z</time>
      </trkpt>
      <trkpt lat="45.74432" lon="4.23991">
        <ele>348.13</ele>
        <time>2016-09-05T12:44:55Z</time>
      </trkpt>
      <trkpt lat="45.74433" lon="4.2397">
        <ele>348.13</ele>
        <time>2016-09-05T12:45:06Z</time>
      </trkpt>
      <trkpt lat="45.74435" lon="4.23949">
        <ele>347.65</ele>
        <time>2016-09-05T12:45:18Z</time>
      </trkpt>
      <trkpt lat="45.74437" lon="4.23927">
        <ele>349.1</ele>
        <time>2016-09-05T12:45:30Z</time>
      </trkpt>
      <trkpt lat="45.74438" lon="4.23907">
        <ele>349.58</ele>
        <time>2016-09-05T12:45:41Z</time>
      </trkpt>
      <trkpt lat="45.74439" lon="4.23886">
        <ele>350.06</ele>
        <time>2016-09-05T12:45:52Z</time>
      </trkpt>
      <trkpt lat="45.74439" lon="4.23867">
        <ele>350.54</ele>
        <time>2016-09-05T12:46:02Z</time>
      </trkpt>
      <trkpt lat="45.74438" lon="4.23847">
        <ele>351.98</ele>
        <time>2016-09-05T12:46:13Z</time>
      </trkpt>
      <trkpt lat="45.74436" lon="4.23829">
        <ele>352.46</ele>
        <time>2016-09-05T12:46:24Z</time>
      </trkpt>
      <trkpt lat="45.74436" lon="4.23812">
        <ele>352.94</ele>
        <time>2016-09-05T12:46:35Z</time>
      </trkpt>
      <trkpt lat="45.74438" lon="4.23786">
        <ele>353.9</ele>
        <time>2016-09-05T12:46:48Z</time>
      </trkpt>
      <trkpt lat="45.7444" lon="4.23771">
        <ele>353.42</ele>
        <time>2016-09-05T12:46:55Z</time>
      </trkpt>
      <trkpt lat="45.7444" lon="4.23756">
        <ele>352.94</ele>
        <time>2016-09-05T12:47:02Z</time>
      </trkpt>
      <trkpt lat="45.74441" lon="4.23754">
        <ele>352.46</ele>
        <time>2016-09-05T12:47:04Z</time>
      </trkpt>
      <trkpt lat="45.74441" lon="4.23751">
        <ele>352.94</ele>
        <time>2016-09-05T12:47:06Z</time>
      </trkpt>
      <trkpt lat="45.74441" lon="4.23741">
        <ele>352.94</ele>
        <time>2016-09-05T12:47:12Z</time>
      </trkpt>
      <trkpt lat="45.74437" lon="4.23718">
        <ele>352.94</ele>
        <time>2016-09-05T12:47:25Z</time>
      </trkpt>
      <trkpt lat="45.74438" lon="4.23713">
        <ele>352.94</ele>
        <time>2016-09-05T12:47:28Z</time>
      </trkpt>
      <trkpt lat="45.74437" lon="4.23704">
        <ele>353.42</ele>
        <time>2016-09-05T12:47:33Z</time>
      </trkpt>
      <trkpt lat="45.74438" lon="4.23682">
        <ele>352.94</ele>
        <time>2016-09-05T12:47:45Z</time>
      </trkpt>
      <trkpt lat="45.74438" lon="4.2366">
        <ele>352.46</ele>
        <time>2016-09-05T12:47:58Z</time>
      </trkpt>
      <trkpt lat="45.74437" lon="4.23638">
        <ele>351.98</ele>
        <time>2016-09-05T12:48:10Z</time>
      </trkpt>
      <trkpt lat="45.74438" lon="4.23624">
        <ele>352.94</ele>
        <time>2016-09-05T12:48:16Z</time>
      </trkpt>
      <trkpt lat="45.74436" lon="4.236">
        <ele>351.5</ele>
        <time>2016-09-05T12:48:31Z</time>
      </trkpt>
      <trkpt lat="45.74437" lon="4.23579">
        <ele>352.46</ele>
        <time>2016-09-05T12:48:44Z</time>
      </trkpt>
      <trkpt lat="45.74437" lon="4.23554">
        <ele>353.9</ele>
        <time>2016-09-05T12:48:58Z</time>
      </trkpt>
      <trkpt lat="45.74436" lon="4.23531">
        <ele>353.9</ele>
        <time>2016-09-05T12:49:11Z</time>
      </trkpt>
      <trkpt lat="45.74438" lon="4.23519">
        <ele>353.42</ele>
        <time>2016-09-05T12:49:16Z</time>
      </trkpt>
      <trkpt lat="45.74438" lon="4.23495">
        <ele>351.5</ele>
        <time>2016-09-05T12:49:28Z</time>
      </trkpt>
      <trkpt lat="45.74442" lon="4.23468">
        <ele>351.98</ele>
        <time>2016-09-05T12:49:42Z</time>
      </trkpt>
      <trkpt lat="45.74442" lon="4.23467">
        <ele>351.98</ele>
        <time>2016-09-05T12:49:43Z</time>
      </trkpt>
      <trkpt lat="45.74442" lon="4.23459">
        <ele>351.98</ele>
        <time>2016-09-05T12:49:47Z</time>
      </trkpt>
      <trkpt lat="45.74441" lon="4.23434">
        <ele>352.94</ele>
        <time>2016-09-05T12:50:01Z</time>
      </trkpt>
      <trkpt lat="45.74437" lon="4.23405">
        <ele>352.94</ele>
        <time>2016-09-05T12:50:16Z</time>
      </trkpt>
      <trkpt lat="45.74437" lon="4.23382">
        <ele>352.46</ele>
        <time>2016-09-05T12:50:28Z</time>
      </trkpt>
      <trkpt lat="45.74435" lon="4.23364">
        <ele>349.58</ele>
        <time>2016-09-05T12:50:39Z</time>
      </trkpt>
      <trkpt lat="45.74432" lon="4.2334">
        <ele>348.62</ele>
        <time>2016-09-05T12:50:52Z</time>
      </trkpt>
      <trkpt lat="45.74429" lon="4.23323">
        <ele>349.1</ele>
        <time>2016-09-05T12:51:03Z</time>
      </trkpt>
      <trkpt lat="45.74427" lon="4.23307">
        <ele>349.1</ele>
        <time>2016-09-05T12:51:13Z</time>
      </trkpt>
      <trkpt lat="45.74422" lon="4.23285">
        <ele>347.17</ele>
        <time>2016-09-05T12:51:26Z</time>
      </trkpt>
      <trkpt lat="45.74427" lon="4.23263">
        <ele>344.29</ele>
        <time>2016-09-05T12:51:41Z</time>
      </trkpt>
      <trkpt lat="45.74431" lon="4.23246">
        <ele>342.37</ele>
        <time>2016-09-05T12:51:49Z</time>
      </trkpt>
      <trkpt lat="45.74437" lon="4.23233">
        <ele>344.77</ele>
        <time>2016-09-05T12:51:56Z</time>
      </trkpt>
      <trkpt lat="45.74438" lon="4.23208">
        <ele>347.17</ele>
        <time>2016-09-05T12:52:09Z</time>
      </trkpt>
      <trkpt lat="45.74438" lon="4.23199">
        <ele>348.62</ele>
        <time>2016-09-05T12:52:15Z</time>
      </trkpt>
      <trkpt lat="45.74438" lon="4.23182">
        <ele>350.54</ele>
        <time>2016-09-05T12:52:24Z</time>
      </trkpt>
      <trkpt lat="45.74442" lon="4.23159">
        <ele>354.38</ele>
        <time>2016-09-05T12:52:36Z</time>
      </trkpt>
      <trkpt lat="45.7444" lon="4.23149">
        <ele>356.31</ele>
        <time>2016-09-05T12:52:42Z</time>
      </trkpt>
      <trkpt lat="45.74438" lon="4.23129">
        <ele>355.34</ele>
        <time>2016-09-05T12:52:53Z</time>
      </trkpt>
      <trkpt lat="45.74437" lon="4.23114">
        <ele>353.9</ele>
        <time>2016-09-05T12:53:00Z</time>
      </trkpt>
      <trkpt lat="45.74435" lon="4.2309">
        <ele>353.9</ele>
        <time>2016-09-05T12:53:11Z</time>
      </trkpt>
      <trkpt lat="45.74436" lon="4.23078">
        <ele>352.46</ele>
        <time>2016-09-05T12:53:20Z</time>
      </trkpt>
      <trkpt lat="45.74434" lon="4.23064">
        <ele>351.02</ele>
        <time>2016-09-05T12:53:29Z</time>
      </trkpt>
      <trkpt lat="45.7442" lon="4.23045">
        <ele>348.13</ele>
        <time>2016-09-05T12:53:49Z</time>
      </trkpt>
    </trkseg>
  </trk>
</gpx>